<?xml version="1.0" encoding="UTF-8" standalone="no" ?>
<gpx xmlns="http://www.topografix.com/GPX/1/1" xmlns:xsi="http://www.w3.org/2001/XMLSchema-instance" xsi:schemaLocation="http://www.topografix.com/GPX/1/1 http://www.topografix.com/GPX/1/1/gpx.xsd" version="1.1" creator="VisuGPX - https://www.visugpx.com">
  <metadata>
    <name>gréoux les bain</name>
    <desc><![CDATA[super michel,paps,maurice,denis,burnot,vincent,christian,]]></desc>
  </metadata>
  <trk>
    <name><![CDATA[Pierrevert Cyclisme]]></name>
    <trkseg>
      <trkpt lat="43.8088" lon="5.75031">
        <ele>413.39999389648</ele>
        <time>2021-01-13T10:22:18.000Z</time>
      </trkpt>
      <trkpt lat="43.80872" lon="5.75083">
        <ele>413.60000610352</ele>
        <time>2021-01-13T10:22:36.000Z</time>
      </trkpt>
      <trkpt lat="43.80871" lon="5.75085">
        <ele>414</ele>
        <time>2021-01-13T10:22:51.000Z</time>
      </trkpt>
      <trkpt lat="43.80872" lon="5.75085">
        <ele>413.79998779297</ele>
        <time>2021-01-13T10:23:05.000Z</time>
      </trkpt>
      <trkpt lat="43.80872" lon="5.75084">
        <ele>413.79998779297</ele>
        <time>2021-01-13T10:23:23.000Z</time>
      </trkpt>
      <trkpt lat="43.80872" lon="5.75084">
        <ele>414</ele>
        <time>2021-01-13T10:23:50.000Z</time>
      </trkpt>
      <trkpt lat="43.80872" lon="5.75083">
        <ele>413.79998779297</ele>
        <time>2021-01-13T10:23:57.000Z</time>
      </trkpt>
      <trkpt lat="43.80871" lon="5.7508">
        <ele>413.79998779297</ele>
        <time>2021-01-13T10:23:59.000Z</time>
      </trkpt>
      <trkpt lat="43.80871" lon="5.75076">
        <ele>413.60000610352</ele>
        <time>2021-01-13T10:24:01.000Z</time>
      </trkpt>
      <trkpt lat="43.80875" lon="5.75073">
        <ele>413.60000610352</ele>
        <time>2021-01-13T10:24:03.000Z</time>
      </trkpt>
      <trkpt lat="43.80879" lon="5.75073">
        <ele>413.39999389648</ele>
        <time>2021-01-13T10:24:05.000Z</time>
      </trkpt>
      <trkpt lat="43.8089" lon="5.75075">
        <ele>413.20001220703</ele>
        <time>2021-01-13T10:24:09.000Z</time>
      </trkpt>
      <trkpt lat="43.80902" lon="5.75071">
        <ele>413.39999389648</ele>
        <time>2021-01-13T10:24:13.000Z</time>
      </trkpt>
      <trkpt lat="43.80914" lon="5.7506">
        <ele>413.60000610352</ele>
        <time>2021-01-13T10:24:17.000Z</time>
      </trkpt>
      <trkpt lat="43.80913" lon="5.75042">
        <ele>413.60000610352</ele>
        <time>2021-01-13T10:24:20.000Z</time>
      </trkpt>
      <trkpt lat="43.80912" lon="5.75035">
        <ele>413.60000610352</ele>
        <time>2021-01-13T10:24:21.000Z</time>
      </trkpt>
      <trkpt lat="43.80908" lon="5.75005">
        <ele>413</ele>
        <time>2021-01-13T10:24:25.000Z</time>
      </trkpt>
      <trkpt lat="43.80906" lon="5.74982">
        <ele>411.60000610352</ele>
        <time>2021-01-13T10:24:28.000Z</time>
      </trkpt>
      <trkpt lat="43.80903" lon="5.74966">
        <ele>410.60000610352</ele>
        <time>2021-01-13T10:24:30.000Z</time>
      </trkpt>
      <trkpt lat="43.80901" lon="5.74949">
        <ele>409.39999389648</ele>
        <time>2021-01-13T10:24:32.000Z</time>
      </trkpt>
      <trkpt lat="43.80899" lon="5.7494">
        <ele>409</ele>
        <time>2021-01-13T10:24:33.000Z</time>
      </trkpt>
      <trkpt lat="43.80894" lon="5.74906">
        <ele>408.20001220703</ele>
        <time>2021-01-13T10:24:37.000Z</time>
      </trkpt>
      <trkpt lat="43.80891" lon="5.749">
        <ele>408.20001220703</ele>
        <time>2021-01-13T10:24:38.000Z</time>
      </trkpt>
      <trkpt lat="43.80879" lon="5.74885">
        <ele>407.39999389648</ele>
        <time>2021-01-13T10:24:41.000Z</time>
      </trkpt>
      <trkpt lat="43.80874" lon="5.74883">
        <ele>407.20001220703</ele>
        <time>2021-01-13T10:24:42.000Z</time>
      </trkpt>
      <trkpt lat="43.8087" lon="5.74881">
        <ele>407</ele>
        <time>2021-01-13T10:24:43.000Z</time>
      </trkpt>
      <trkpt lat="43.80856" lon="5.74878">
        <ele>406</ele>
        <time>2021-01-13T10:24:46.000Z</time>
      </trkpt>
      <trkpt lat="43.80834" lon="5.74884">
        <ele>405.79998779297</ele>
        <time>2021-01-13T10:24:51.000Z</time>
      </trkpt>
      <trkpt lat="43.80803" lon="5.74904">
        <ele>405.79998779297</ele>
        <time>2021-01-13T10:24:59.000Z</time>
      </trkpt>
      <trkpt lat="43.8077" lon="5.74924">
        <ele>406</ele>
        <time>2021-01-13T10:25:06.000Z</time>
      </trkpt>
      <trkpt lat="43.80739" lon="5.74943">
        <ele>404.79998779297</ele>
        <time>2021-01-13T10:25:12.000Z</time>
      </trkpt>
      <trkpt lat="43.80715" lon="5.74955">
        <ele>403.60000610352</ele>
        <time>2021-01-13T10:25:16.000Z</time>
      </trkpt>
      <trkpt lat="43.80705" lon="5.74964">
        <ele>403.39999389648</ele>
        <time>2021-01-13T10:25:18.000Z</time>
      </trkpt>
      <trkpt lat="43.80686" lon="5.74972">
        <ele>403</ele>
        <time>2021-01-13T10:25:21.000Z</time>
      </trkpt>
      <trkpt lat="43.80673" lon="5.74974">
        <ele>403</ele>
        <time>2021-01-13T10:25:23.000Z</time>
      </trkpt>
      <trkpt lat="43.8066" lon="5.74977">
        <ele>402.60000610352</ele>
        <time>2021-01-13T10:25:25.000Z</time>
      </trkpt>
      <trkpt lat="43.80651" lon="5.74979">
        <ele>402.20001220703</ele>
        <time>2021-01-13T10:25:27.000Z</time>
      </trkpt>
      <trkpt lat="43.80645" lon="5.74979">
        <ele>401.79998779297</ele>
        <time>2021-01-13T10:25:29.000Z</time>
      </trkpt>
      <trkpt lat="43.80644" lon="5.74978">
        <ele>401.79998779297</ele>
        <time>2021-01-13T10:25:30.000Z</time>
      </trkpt>
      <trkpt lat="43.80647" lon="5.74974">
        <ele>401.39999389648</ele>
        <time>2021-01-13T10:25:33.000Z</time>
      </trkpt>
      <trkpt lat="43.80649" lon="5.74971">
        <ele>400.79998779297</ele>
        <time>2021-01-13T10:25:34.000Z</time>
      </trkpt>
      <trkpt lat="43.80656" lon="5.74961">
        <ele>400.60000610352</ele>
        <time>2021-01-13T10:25:36.000Z</time>
      </trkpt>
      <trkpt lat="43.80657" lon="5.74953">
        <ele>400.39999389648</ele>
        <time>2021-01-13T10:25:37.000Z</time>
      </trkpt>
      <trkpt lat="43.80651" lon="5.74924">
        <ele>400.39999389648</ele>
        <time>2021-01-13T10:25:40.000Z</time>
      </trkpt>
      <trkpt lat="43.80647" lon="5.74914">
        <ele>400.20001220703</ele>
        <time>2021-01-13T10:25:41.000Z</time>
      </trkpt>
      <trkpt lat="43.80641" lon="5.74894">
        <ele>398.79998779297</ele>
        <time>2021-01-13T10:25:43.000Z</time>
      </trkpt>
      <trkpt lat="43.80637" lon="5.74884">
        <ele>397.60000610352</ele>
        <time>2021-01-13T10:25:44.000Z</time>
      </trkpt>
      <trkpt lat="43.80634" lon="5.74874">
        <ele>396.60000610352</ele>
        <time>2021-01-13T10:25:45.000Z</time>
      </trkpt>
      <trkpt lat="43.80631" lon="5.74863">
        <ele>395.39999389648</ele>
        <time>2021-01-13T10:25:46.000Z</time>
      </trkpt>
      <trkpt lat="43.80628" lon="5.74853">
        <ele>394</ele>
        <time>2021-01-13T10:25:47.000Z</time>
      </trkpt>
      <trkpt lat="43.80625" lon="5.74844">
        <ele>392.60000610352</ele>
        <time>2021-01-13T10:25:48.000Z</time>
      </trkpt>
      <trkpt lat="43.80622" lon="5.74834">
        <ele>391.39999389648</ele>
        <time>2021-01-13T10:25:49.000Z</time>
      </trkpt>
      <trkpt lat="43.80617" lon="5.74815">
        <ele>390.20001220703</ele>
        <time>2021-01-13T10:25:51.000Z</time>
      </trkpt>
      <trkpt lat="43.80611" lon="5.74799">
        <ele>389.60000610352</ele>
        <time>2021-01-13T10:25:53.000Z</time>
      </trkpt>
      <trkpt lat="43.80609" lon="5.74792">
        <ele>389.20001220703</ele>
        <time>2021-01-13T10:25:54.000Z</time>
      </trkpt>
      <trkpt lat="43.80603" lon="5.7478">
        <ele>388.39999389648</ele>
        <time>2021-01-13T10:25:56.000Z</time>
      </trkpt>
      <trkpt lat="43.806" lon="5.74774">
        <ele>387.60000610352</ele>
        <time>2021-01-13T10:25:57.000Z</time>
      </trkpt>
      <trkpt lat="43.80597" lon="5.74768">
        <ele>387</ele>
        <time>2021-01-13T10:25:58.000Z</time>
      </trkpt>
      <trkpt lat="43.80591" lon="5.74755">
        <ele>386.39999389648</ele>
        <time>2021-01-13T10:26:00.000Z</time>
      </trkpt>
      <trkpt lat="43.80585" lon="5.74736">
        <ele>386</ele>
        <time>2021-01-13T10:26:03.000Z</time>
      </trkpt>
      <trkpt lat="43.8058" lon="5.74723">
        <ele>386</ele>
        <time>2021-01-13T10:26:05.000Z</time>
      </trkpt>
      <trkpt lat="43.80572" lon="5.74713">
        <ele>386</ele>
        <time>2021-01-13T10:26:07.000Z</time>
      </trkpt>
      <trkpt lat="43.80564" lon="5.74705">
        <ele>386.20001220703</ele>
        <time>2021-01-13T10:26:09.000Z</time>
      </trkpt>
      <trkpt lat="43.80548" lon="5.7469">
        <ele>387</ele>
        <time>2021-01-13T10:26:13.000Z</time>
      </trkpt>
      <trkpt lat="43.80539" lon="5.74682">
        <ele>387.60000610352</ele>
        <time>2021-01-13T10:26:15.000Z</time>
      </trkpt>
      <trkpt lat="43.80531" lon="5.74674">
        <ele>387.79998779297</ele>
        <time>2021-01-13T10:26:17.000Z</time>
      </trkpt>
      <trkpt lat="43.80528" lon="5.74669">
        <ele>387.79998779297</ele>
        <time>2021-01-13T10:26:18.000Z</time>
      </trkpt>
      <trkpt lat="43.80512" lon="5.74652">
        <ele>388</ele>
        <time>2021-01-13T10:26:22.000Z</time>
      </trkpt>
      <trkpt lat="43.80508" lon="5.74648">
        <ele>388.20001220703</ele>
        <time>2021-01-13T10:26:23.000Z</time>
      </trkpt>
      <trkpt lat="43.80499" lon="5.74641">
        <ele>388.79998779297</ele>
        <time>2021-01-13T10:26:25.000Z</time>
      </trkpt>
      <trkpt lat="43.80484" lon="5.74629">
        <ele>389.60000610352</ele>
        <time>2021-01-13T10:26:29.000Z</time>
      </trkpt>
      <trkpt lat="43.80482" lon="5.74626">
        <ele>390</ele>
        <time>2021-01-13T10:26:30.000Z</time>
      </trkpt>
      <trkpt lat="43.80471" lon="5.74617">
        <ele>390.79998779297</ele>
        <time>2021-01-13T10:26:33.000Z</time>
      </trkpt>
      <trkpt lat="43.80465" lon="5.7461">
        <ele>391.39999389648</ele>
        <time>2021-01-13T10:26:35.000Z</time>
      </trkpt>
      <trkpt lat="43.80456" lon="5.746">
        <ele>392.79998779297</ele>
        <time>2021-01-13T10:26:38.000Z</time>
      </trkpt>
      <trkpt lat="43.80448" lon="5.74592">
        <ele>394</ele>
        <time>2021-01-13T10:26:41.000Z</time>
      </trkpt>
      <trkpt lat="43.8044" lon="5.74583">
        <ele>395.20001220703</ele>
        <time>2021-01-13T10:26:45.000Z</time>
      </trkpt>
      <trkpt lat="43.80439" lon="5.7458">
        <ele>395.39999389648</ele>
        <time>2021-01-13T10:26:46.000Z</time>
      </trkpt>
      <trkpt lat="43.80434" lon="5.74569">
        <ele>396.39999389648</ele>
        <time>2021-01-13T10:26:49.000Z</time>
      </trkpt>
      <trkpt lat="43.80433" lon="5.74556">
        <ele>397.39999389648</ele>
        <time>2021-01-13T10:26:52.000Z</time>
      </trkpt>
      <trkpt lat="43.80433" lon="5.74545">
        <ele>399</ele>
        <time>2021-01-13T10:26:56.000Z</time>
      </trkpt>
      <trkpt lat="43.80442" lon="5.74533">
        <ele>399.39999389648</ele>
        <time>2021-01-13T10:27:00.000Z</time>
      </trkpt>
      <trkpt lat="43.80455" lon="5.74525">
        <ele>399.39999389648</ele>
        <time>2021-01-13T10:27:04.000Z</time>
      </trkpt>
      <trkpt lat="43.80454" lon="5.74523">
        <ele>399.20001220703</ele>
        <time>2021-01-13T10:27:06.000Z</time>
      </trkpt>
      <trkpt lat="43.8045" lon="5.74524">
        <ele>397.39999389648</ele>
        <time>2021-01-13T10:27:08.000Z</time>
      </trkpt>
      <trkpt lat="43.80434" lon="5.74524">
        <ele>396.39999389648</ele>
        <time>2021-01-13T10:27:13.000Z</time>
      </trkpt>
      <trkpt lat="43.80426" lon="5.74526">
        <ele>395.39999389648</ele>
        <time>2021-01-13T10:27:16.000Z</time>
      </trkpt>
      <trkpt lat="43.80424" lon="5.74525">
        <ele>395</ele>
        <time>2021-01-13T10:27:17.000Z</time>
      </trkpt>
      <trkpt lat="43.80424" lon="5.7452">
        <ele>394.20001220703</ele>
        <time>2021-01-13T10:27:19.000Z</time>
      </trkpt>
      <trkpt lat="43.80426" lon="5.74518">
        <ele>393</ele>
        <time>2021-01-13T10:27:20.000Z</time>
      </trkpt>
      <trkpt lat="43.80428" lon="5.74513">
        <ele>391.39999389648</ele>
        <time>2021-01-13T10:27:21.000Z</time>
      </trkpt>
      <trkpt lat="43.8043" lon="5.74508">
        <ele>390.20001220703</ele>
        <time>2021-01-13T10:27:22.000Z</time>
      </trkpt>
      <trkpt lat="43.80433" lon="5.74504">
        <ele>389.20001220703</ele>
        <time>2021-01-13T10:27:23.000Z</time>
      </trkpt>
      <trkpt lat="43.80441" lon="5.74497">
        <ele>388.39999389648</ele>
        <time>2021-01-13T10:27:25.000Z</time>
      </trkpt>
      <trkpt lat="43.80445" lon="5.74494">
        <ele>388</ele>
        <time>2021-01-13T10:27:26.000Z</time>
      </trkpt>
      <trkpt lat="43.80452" lon="5.74492">
        <ele>387</ele>
        <time>2021-01-13T10:27:28.000Z</time>
      </trkpt>
      <trkpt lat="43.80459" lon="5.7449">
        <ele>385</ele>
        <time>2021-01-13T10:27:30.000Z</time>
      </trkpt>
      <trkpt lat="43.80469" lon="5.74484">
        <ele>383.79998779297</ele>
        <time>2021-01-13T10:27:34.000Z</time>
      </trkpt>
      <trkpt lat="43.8047" lon="5.74481">
        <ele>383.60000610352</ele>
        <time>2021-01-13T10:27:35.000Z</time>
      </trkpt>
      <trkpt lat="43.80464" lon="5.74473">
        <ele>382.79998779297</ele>
        <time>2021-01-13T10:27:39.000Z</time>
      </trkpt>
      <trkpt lat="43.80463" lon="5.74469">
        <ele>382.79998779297</ele>
        <time>2021-01-13T10:27:40.000Z</time>
      </trkpt>
      <trkpt lat="43.80458" lon="5.74464">
        <ele>382.39999389648</ele>
        <time>2021-01-13T10:27:42.000Z</time>
      </trkpt>
      <trkpt lat="43.80452" lon="5.74465">
        <ele>382</ele>
        <time>2021-01-13T10:27:44.000Z</time>
      </trkpt>
      <trkpt lat="43.80449" lon="5.74465">
        <ele>381.60000610352</ele>
        <time>2021-01-13T10:27:45.000Z</time>
      </trkpt>
      <trkpt lat="43.80447" lon="5.74465">
        <ele>380.79998779297</ele>
        <time>2021-01-13T10:27:46.000Z</time>
      </trkpt>
      <trkpt lat="43.80444" lon="5.74465">
        <ele>379.79998779297</ele>
        <time>2021-01-13T10:27:47.000Z</time>
      </trkpt>
      <trkpt lat="43.80442" lon="5.74464">
        <ele>378.39999389648</ele>
        <time>2021-01-13T10:27:48.000Z</time>
      </trkpt>
      <trkpt lat="43.80439" lon="5.74463">
        <ele>377.39999389648</ele>
        <time>2021-01-13T10:27:49.000Z</time>
      </trkpt>
      <trkpt lat="43.8043" lon="5.74461">
        <ele>376.39999389648</ele>
        <time>2021-01-13T10:27:52.000Z</time>
      </trkpt>
      <trkpt lat="43.80427" lon="5.7446">
        <ele>376.20001220703</ele>
        <time>2021-01-13T10:27:53.000Z</time>
      </trkpt>
      <trkpt lat="43.80422" lon="5.74458">
        <ele>375.60000610352</ele>
        <time>2021-01-13T10:27:57.000Z</time>
      </trkpt>
      <trkpt lat="43.80422" lon="5.74458">
        <ele>375.20001220703</ele>
        <time>2021-01-13T10:27:58.000Z</time>
      </trkpt>
      <trkpt lat="43.80422" lon="5.74458">
        <ele>374.20001220703</ele>
        <time>2021-01-13T10:28:01.000Z</time>
      </trkpt>
      <trkpt lat="43.80422" lon="5.74458">
        <ele>373</ele>
        <time>2021-01-13T10:28:05.000Z</time>
      </trkpt>
      <trkpt lat="43.80422" lon="5.74458">
        <ele>372.79998779297</ele>
        <time>2021-01-13T10:28:09.000Z</time>
      </trkpt>
      <trkpt lat="43.80416" lon="5.7446">
        <ele>372.60000610352</ele>
        <time>2021-01-13T10:28:14.000Z</time>
      </trkpt>
      <trkpt lat="43.80413" lon="5.74463">
        <ele>372.39999389648</ele>
        <time>2021-01-13T10:28:19.000Z</time>
      </trkpt>
      <trkpt lat="43.80413" lon="5.74463">
        <ele>372.20001220703</ele>
        <time>2021-01-13T10:28:31.000Z</time>
      </trkpt>
      <trkpt lat="43.80413" lon="5.74463">
        <ele>372.39999389648</ele>
        <time>2021-01-13T10:28:44.000Z</time>
      </trkpt>
      <trkpt lat="43.80413" lon="5.74462">
        <ele>372.20001220703</ele>
        <time>2021-01-13T10:28:52.000Z</time>
      </trkpt>
      <trkpt lat="43.80412" lon="5.74461">
        <ele>372</ele>
        <time>2021-01-13T10:29:01.000Z</time>
      </trkpt>
      <trkpt lat="43.80412" lon="5.74461">
        <ele>372</ele>
        <time>2021-01-13T10:29:03.000Z</time>
      </trkpt>
      <trkpt lat="43.80411" lon="5.74461">
        <ele>372</ele>
        <time>2021-01-13T10:29:15.000Z</time>
      </trkpt>
      <trkpt lat="43.8041" lon="5.74461">
        <ele>372</ele>
        <time>2021-01-13T10:29:16.000Z</time>
      </trkpt>
      <trkpt lat="43.80407" lon="5.74456">
        <ele>372</ele>
        <time>2021-01-13T10:29:18.000Z</time>
      </trkpt>
      <trkpt lat="43.80397" lon="5.74444">
        <ele>372</ele>
        <time>2021-01-13T10:29:22.000Z</time>
      </trkpt>
      <trkpt lat="43.80389" lon="5.74451">
        <ele>371.20001220703</ele>
        <time>2021-01-13T10:29:25.000Z</time>
      </trkpt>
      <trkpt lat="43.80387" lon="5.74454">
        <ele>370.79998779297</ele>
        <time>2021-01-13T10:29:26.000Z</time>
      </trkpt>
      <trkpt lat="43.80382" lon="5.74459">
        <ele>369.60000610352</ele>
        <time>2021-01-13T10:29:28.000Z</time>
      </trkpt>
      <trkpt lat="43.80373" lon="5.7447">
        <ele>368.60000610352</ele>
        <time>2021-01-13T10:29:31.000Z</time>
      </trkpt>
      <trkpt lat="43.80361" lon="5.74483">
        <ele>368</ele>
        <time>2021-01-13T10:29:34.000Z</time>
      </trkpt>
      <trkpt lat="43.80348" lon="5.74495">
        <ele>367.79998779297</ele>
        <time>2021-01-13T10:29:37.000Z</time>
      </trkpt>
      <trkpt lat="43.80329" lon="5.74511">
        <ele>367.20001220703</ele>
        <time>2021-01-13T10:29:41.000Z</time>
      </trkpt>
      <trkpt lat="43.80314" lon="5.74524">
        <ele>367</ele>
        <time>2021-01-13T10:29:44.000Z</time>
      </trkpt>
      <trkpt lat="43.80287" lon="5.74551">
        <ele>366.60000610352</ele>
        <time>2021-01-13T10:29:50.000Z</time>
      </trkpt>
      <trkpt lat="43.8027" lon="5.74572">
        <ele>366.20001220703</ele>
        <time>2021-01-13T10:29:56.000Z</time>
      </trkpt>
      <trkpt lat="43.80266" lon="5.74581">
        <ele>366.20001220703</ele>
        <time>2021-01-13T10:29:58.000Z</time>
      </trkpt>
      <trkpt lat="43.80261" lon="5.74592">
        <ele>366</ele>
        <time>2021-01-13T10:30:00.000Z</time>
      </trkpt>
      <trkpt lat="43.80258" lon="5.74595">
        <ele>366</ele>
        <time>2021-01-13T10:30:01.000Z</time>
      </trkpt>
      <trkpt lat="43.80253" lon="5.74599">
        <ele>365.79998779297</ele>
        <time>2021-01-13T10:30:03.000Z</time>
      </trkpt>
      <trkpt lat="43.8024" lon="5.74605">
        <ele>365.39999389648</ele>
        <time>2021-01-13T10:30:07.000Z</time>
      </trkpt>
      <trkpt lat="43.80233" lon="5.7461">
        <ele>364.39999389648</ele>
        <time>2021-01-13T10:30:09.000Z</time>
      </trkpt>
      <trkpt lat="43.80229" lon="5.74614">
        <ele>364.20001220703</ele>
        <time>2021-01-13T10:30:10.000Z</time>
      </trkpt>
      <trkpt lat="43.80215" lon="5.74621">
        <ele>363.60000610352</ele>
        <time>2021-01-13T10:30:13.000Z</time>
      </trkpt>
      <trkpt lat="43.80208" lon="5.74627">
        <ele>363.39999389648</ele>
        <time>2021-01-13T10:30:15.000Z</time>
      </trkpt>
      <trkpt lat="43.80204" lon="5.74631">
        <ele>363.39999389648</ele>
        <time>2021-01-13T10:30:16.000Z</time>
      </trkpt>
      <trkpt lat="43.80201" lon="5.74635">
        <ele>363.39999389648</ele>
        <time>2021-01-13T10:30:17.000Z</time>
      </trkpt>
      <trkpt lat="43.80188" lon="5.74658">
        <ele>363.60000610352</ele>
        <time>2021-01-13T10:30:22.000Z</time>
      </trkpt>
      <trkpt lat="43.80181" lon="5.7467">
        <ele>364</ele>
        <time>2021-01-13T10:30:26.000Z</time>
      </trkpt>
      <trkpt lat="43.80177" lon="5.74679">
        <ele>365</ele>
        <time>2021-01-13T10:30:29.000Z</time>
      </trkpt>
      <trkpt lat="43.80175" lon="5.74682">
        <ele>365.39999389648</ele>
        <time>2021-01-13T10:30:30.000Z</time>
      </trkpt>
      <trkpt lat="43.80172" lon="5.74686">
        <ele>365.79998779297</ele>
        <time>2021-01-13T10:30:31.000Z</time>
      </trkpt>
      <trkpt lat="43.80169" lon="5.74691">
        <ele>366.20001220703</ele>
        <time>2021-01-13T10:30:32.000Z</time>
      </trkpt>
      <trkpt lat="43.80164" lon="5.74694">
        <ele>366.39999389648</ele>
        <time>2021-01-13T10:30:33.000Z</time>
      </trkpt>
      <trkpt lat="43.80154" lon="5.74706">
        <ele>366.60000610352</ele>
        <time>2021-01-13T10:30:36.000Z</time>
      </trkpt>
      <trkpt lat="43.80148" lon="5.7471">
        <ele>366.79998779297</ele>
        <time>2021-01-13T10:30:38.000Z</time>
      </trkpt>
      <trkpt lat="43.80143" lon="5.74717">
        <ele>366.79998779297</ele>
        <time>2021-01-13T10:30:40.000Z</time>
      </trkpt>
      <trkpt lat="43.80136" lon="5.74725">
        <ele>366.79998779297</ele>
        <time>2021-01-13T10:30:42.000Z</time>
      </trkpt>
      <trkpt lat="43.80115" lon="5.74733">
        <ele>366</ele>
        <time>2021-01-13T10:30:46.000Z</time>
      </trkpt>
      <trkpt lat="43.80107" lon="5.74741">
        <ele>365.39999389648</ele>
        <time>2021-01-13T10:30:48.000Z</time>
      </trkpt>
      <trkpt lat="43.80102" lon="5.74746">
        <ele>364.79998779297</ele>
        <time>2021-01-13T10:30:49.000Z</time>
      </trkpt>
      <trkpt lat="43.80093" lon="5.74757">
        <ele>363.39999389648</ele>
        <time>2021-01-13T10:30:51.000Z</time>
      </trkpt>
      <trkpt lat="43.80085" lon="5.74767">
        <ele>363</ele>
        <time>2021-01-13T10:30:53.000Z</time>
      </trkpt>
      <trkpt lat="43.80072" lon="5.74782">
        <ele>362.39999389648</ele>
        <time>2021-01-13T10:30:56.000Z</time>
      </trkpt>
      <trkpt lat="43.80064" lon="5.74793">
        <ele>361.79998779297</ele>
        <time>2021-01-13T10:30:58.000Z</time>
      </trkpt>
      <trkpt lat="43.80055" lon="5.74801">
        <ele>361.20001220703</ele>
        <time>2021-01-13T10:31:00.000Z</time>
      </trkpt>
      <trkpt lat="43.80047" lon="5.74806">
        <ele>360.79998779297</ele>
        <time>2021-01-13T10:31:02.000Z</time>
      </trkpt>
      <trkpt lat="43.8004" lon="5.74813">
        <ele>360.39999389648</ele>
        <time>2021-01-13T10:31:05.000Z</time>
      </trkpt>
      <trkpt lat="43.80025" lon="5.74815">
        <ele>360.79998779297</ele>
        <time>2021-01-13T10:31:09.000Z</time>
      </trkpt>
      <trkpt lat="43.80011" lon="5.74812">
        <ele>361</ele>
        <time>2021-01-13T10:31:12.000Z</time>
      </trkpt>
      <trkpt lat="43.80004" lon="5.74809">
        <ele>361</ele>
        <time>2021-01-13T10:31:14.000Z</time>
      </trkpt>
      <trkpt lat="43.79984" lon="5.74805">
        <ele>362</ele>
        <time>2021-01-13T10:31:20.000Z</time>
      </trkpt>
      <trkpt lat="43.79969" lon="5.74813">
        <ele>363</ele>
        <time>2021-01-13T10:31:25.000Z</time>
      </trkpt>
      <trkpt lat="43.79966" lon="5.74816">
        <ele>363.60000610352</ele>
        <time>2021-01-13T10:31:26.000Z</time>
      </trkpt>
      <trkpt lat="43.79958" lon="5.74826">
        <ele>365.20001220703</ele>
        <time>2021-01-13T10:31:29.000Z</time>
      </trkpt>
      <trkpt lat="43.79952" lon="5.74834">
        <ele>367.39999389648</ele>
        <time>2021-01-13T10:31:31.000Z</time>
      </trkpt>
      <trkpt lat="43.79938" lon="5.74845">
        <ele>368.20001220703</ele>
        <time>2021-01-13T10:31:35.000Z</time>
      </trkpt>
      <trkpt lat="43.79936" lon="5.74846">
        <ele>368.39999389648</ele>
        <time>2021-01-13T10:31:37.000Z</time>
      </trkpt>
      <trkpt lat="43.79936" lon="5.74846">
        <ele>368.39999389648</ele>
        <time>2021-01-13T10:31:39.000Z</time>
      </trkpt>
      <trkpt lat="43.79936" lon="5.74847">
        <ele>368.39999389648</ele>
        <time>2021-01-13T10:31:52.000Z</time>
      </trkpt>
      <trkpt lat="43.79935" lon="5.74847">
        <ele>368.79998779297</ele>
        <time>2021-01-13T10:32:07.000Z</time>
      </trkpt>
      <trkpt lat="43.79932" lon="5.74846">
        <ele>368.60000610352</ele>
        <time>2021-01-13T10:32:23.000Z</time>
      </trkpt>
      <trkpt lat="43.79931" lon="5.74844">
        <ele>368.60000610352</ele>
        <time>2021-01-13T10:32:24.000Z</time>
      </trkpt>
      <trkpt lat="43.7993" lon="5.74834">
        <ele>368.60000610352</ele>
        <time>2021-01-13T10:32:27.000Z</time>
      </trkpt>
      <trkpt lat="43.79927" lon="5.74817">
        <ele>368.39999389648</ele>
        <time>2021-01-13T10:32:31.000Z</time>
      </trkpt>
      <trkpt lat="43.79921" lon="5.74807">
        <ele>367</ele>
        <time>2021-01-13T10:32:34.000Z</time>
      </trkpt>
      <trkpt lat="43.79918" lon="5.74805">
        <ele>366.60000610352</ele>
        <time>2021-01-13T10:32:35.000Z</time>
      </trkpt>
      <trkpt lat="43.79909" lon="5.74802">
        <ele>365.79998779297</ele>
        <time>2021-01-13T10:32:38.000Z</time>
      </trkpt>
      <trkpt lat="43.79905" lon="5.74802">
        <ele>365</ele>
        <time>2021-01-13T10:32:39.000Z</time>
      </trkpt>
      <trkpt lat="43.79901" lon="5.74801">
        <ele>364.39999389648</ele>
        <time>2021-01-13T10:32:40.000Z</time>
      </trkpt>
      <trkpt lat="43.79894" lon="5.74798">
        <ele>363.39999389648</ele>
        <time>2021-01-13T10:32:42.000Z</time>
      </trkpt>
      <trkpt lat="43.79892" lon="5.74797">
        <ele>363</ele>
        <time>2021-01-13T10:32:43.000Z</time>
      </trkpt>
      <trkpt lat="43.79887" lon="5.74797">
        <ele>362.79998779297</ele>
        <time>2021-01-13T10:32:44.000Z</time>
      </trkpt>
      <trkpt lat="43.79882" lon="5.74797">
        <ele>362.20001220703</ele>
        <time>2021-01-13T10:32:45.000Z</time>
      </trkpt>
      <trkpt lat="43.79877" lon="5.74796">
        <ele>361.39999389648</ele>
        <time>2021-01-13T10:32:46.000Z</time>
      </trkpt>
      <trkpt lat="43.79873" lon="5.74793">
        <ele>360.39999389648</ele>
        <time>2021-01-13T10:32:47.000Z</time>
      </trkpt>
      <trkpt lat="43.7987" lon="5.74791">
        <ele>359.79998779297</ele>
        <time>2021-01-13T10:32:48.000Z</time>
      </trkpt>
      <trkpt lat="43.79869" lon="5.7479">
        <ele>359.39999389648</ele>
        <time>2021-01-13T10:32:49.000Z</time>
      </trkpt>
      <trkpt lat="43.79868" lon="5.74789">
        <ele>359.20001220703</ele>
        <time>2021-01-13T10:32:50.000Z</time>
      </trkpt>
      <trkpt lat="43.79866" lon="5.74785">
        <ele>357.79998779297</ele>
        <time>2021-01-13T10:32:52.000Z</time>
      </trkpt>
      <trkpt lat="43.79865" lon="5.74782">
        <ele>356.60000610352</ele>
        <time>2021-01-13T10:32:53.000Z</time>
      </trkpt>
      <trkpt lat="43.79864" lon="5.74779">
        <ele>355.39999389648</ele>
        <time>2021-01-13T10:32:54.000Z</time>
      </trkpt>
      <trkpt lat="43.79862" lon="5.7477">
        <ele>355</ele>
        <time>2021-01-13T10:32:56.000Z</time>
      </trkpt>
      <trkpt lat="43.7986" lon="5.74768">
        <ele>354.79998779297</ele>
        <time>2021-01-13T10:32:57.000Z</time>
      </trkpt>
      <trkpt lat="43.79852" lon="5.74766">
        <ele>354.20001220703</ele>
        <time>2021-01-13T10:33:00.000Z</time>
      </trkpt>
      <trkpt lat="43.7985" lon="5.74767">
        <ele>353.20001220703</ele>
        <time>2021-01-13T10:33:01.000Z</time>
      </trkpt>
      <trkpt lat="43.79847" lon="5.74768">
        <ele>352.20001220703</ele>
        <time>2021-01-13T10:33:02.000Z</time>
      </trkpt>
      <trkpt lat="43.79843" lon="5.7477">
        <ele>350.79998779297</ele>
        <time>2021-01-13T10:33:03.000Z</time>
      </trkpt>
      <trkpt lat="43.79839" lon="5.74771">
        <ele>349.79998779297</ele>
        <time>2021-01-13T10:33:04.000Z</time>
      </trkpt>
      <trkpt lat="43.79832" lon="5.74773">
        <ele>348.60000610352</ele>
        <time>2021-01-13T10:33:06.000Z</time>
      </trkpt>
      <trkpt lat="43.79826" lon="5.74778">
        <ele>347.20001220703</ele>
        <time>2021-01-13T10:33:08.000Z</time>
      </trkpt>
      <trkpt lat="43.7981" lon="5.74785">
        <ele>346.20001220703</ele>
        <time>2021-01-13T10:33:12.000Z</time>
      </trkpt>
      <trkpt lat="43.79799" lon="5.74796">
        <ele>346.20001220703</ele>
        <time>2021-01-13T10:33:16.000Z</time>
      </trkpt>
      <trkpt lat="43.79789" lon="5.74811">
        <ele>346.20001220703</ele>
        <time>2021-01-13T10:33:20.000Z</time>
      </trkpt>
      <trkpt lat="43.79777" lon="5.74818">
        <ele>348.79998779297</ele>
        <time>2021-01-13T10:33:24.000Z</time>
      </trkpt>
      <trkpt lat="43.79771" lon="5.74825">
        <ele>349.60000610352</ele>
        <time>2021-01-13T10:33:27.000Z</time>
      </trkpt>
      <trkpt lat="43.79769" lon="5.7483">
        <ele>350</ele>
        <time>2021-01-13T10:33:28.000Z</time>
      </trkpt>
      <trkpt lat="43.79761" lon="5.7484">
        <ele>351</ele>
        <time>2021-01-13T10:33:31.000Z</time>
      </trkpt>
      <trkpt lat="43.79757" lon="5.74843">
        <ele>351.39999389648</ele>
        <time>2021-01-13T10:33:32.000Z</time>
      </trkpt>
      <trkpt lat="43.79749" lon="5.74846">
        <ele>351.79998779297</ele>
        <time>2021-01-13T10:33:34.000Z</time>
      </trkpt>
      <trkpt lat="43.79744" lon="5.74842">
        <ele>352</ele>
        <time>2021-01-13T10:33:36.000Z</time>
      </trkpt>
      <trkpt lat="43.79737" lon="5.74837">
        <ele>352</ele>
        <time>2021-01-13T10:33:38.000Z</time>
      </trkpt>
      <trkpt lat="43.79728" lon="5.74824">
        <ele>352</ele>
        <time>2021-01-13T10:33:42.000Z</time>
      </trkpt>
      <trkpt lat="43.7972" lon="5.74812">
        <ele>351.20001220703</ele>
        <time>2021-01-13T10:33:46.000Z</time>
      </trkpt>
      <trkpt lat="43.79713" lon="5.74804">
        <ele>350.79998779297</ele>
        <time>2021-01-13T10:33:48.000Z</time>
      </trkpt>
      <trkpt lat="43.79707" lon="5.74794">
        <ele>350.20001220703</ele>
        <time>2021-01-13T10:33:50.000Z</time>
      </trkpt>
      <trkpt lat="43.79699" lon="5.74783">
        <ele>349.60000610352</ele>
        <time>2021-01-13T10:33:52.000Z</time>
      </trkpt>
      <trkpt lat="43.79692" lon="5.74782">
        <ele>348.60000610352</ele>
        <time>2021-01-13T10:33:54.000Z</time>
      </trkpt>
      <trkpt lat="43.79689" lon="5.74784">
        <ele>348.39999389648</ele>
        <time>2021-01-13T10:33:55.000Z</time>
      </trkpt>
      <trkpt lat="43.79683" lon="5.7479">
        <ele>347</ele>
        <time>2021-01-13T10:33:57.000Z</time>
      </trkpt>
      <trkpt lat="43.7968" lon="5.74794">
        <ele>346.20001220703</ele>
        <time>2021-01-13T10:33:58.000Z</time>
      </trkpt>
      <trkpt lat="43.79677" lon="5.74797">
        <ele>345.79998779297</ele>
        <time>2021-01-13T10:33:59.000Z</time>
      </trkpt>
      <trkpt lat="43.7966" lon="5.74821">
        <ele>345.20001220703</ele>
        <time>2021-01-13T10:34:05.000Z</time>
      </trkpt>
      <trkpt lat="43.7965" lon="5.74845">
        <ele>345.20001220703</ele>
        <time>2021-01-13T10:34:10.000Z</time>
      </trkpt>
      <trkpt lat="43.79641" lon="5.74874">
        <ele>345.79998779297</ele>
        <time>2021-01-13T10:34:16.000Z</time>
      </trkpt>
      <trkpt lat="43.79641" lon="5.74891">
        <ele>346.79998779297</ele>
        <time>2021-01-13T10:34:20.000Z</time>
      </trkpt>
      <trkpt lat="43.79638" lon="5.74904">
        <ele>348.20001220703</ele>
        <time>2021-01-13T10:34:23.000Z</time>
      </trkpt>
      <trkpt lat="43.79635" lon="5.74917">
        <ele>348.79998779297</ele>
        <time>2021-01-13T10:34:26.000Z</time>
      </trkpt>
      <trkpt lat="43.79631" lon="5.74916">
        <ele>349</ele>
        <time>2021-01-13T10:34:29.000Z</time>
      </trkpt>
      <trkpt lat="43.79629" lon="5.74906">
        <ele>349</ele>
        <time>2021-01-13T10:34:34.000Z</time>
      </trkpt>
      <trkpt lat="43.7963" lon="5.74906">
        <ele>347.20001220703</ele>
        <time>2021-01-13T10:34:41.000Z</time>
      </trkpt>
      <trkpt lat="43.7963" lon="5.74906">
        <ele>346.79998779297</ele>
        <time>2021-01-13T10:34:43.000Z</time>
      </trkpt>
      <trkpt lat="43.7963" lon="5.74906">
        <ele>346.79998779297</ele>
        <time>2021-01-13T10:34:50.000Z</time>
      </trkpt>
      <trkpt lat="43.7963" lon="5.74906">
        <ele>347</ele>
        <time>2021-01-13T10:35:03.000Z</time>
      </trkpt>
      <trkpt lat="43.79629" lon="5.74906">
        <ele>346.79998779297</ele>
        <time>2021-01-13T10:35:18.000Z</time>
      </trkpt>
      <trkpt lat="43.79629" lon="5.74899">
        <ele>346.79998779297</ele>
        <time>2021-01-13T10:35:23.000Z</time>
      </trkpt>
      <trkpt lat="43.79627" lon="5.74888">
        <ele>346.60000610352</ele>
        <time>2021-01-13T10:35:25.000Z</time>
      </trkpt>
      <trkpt lat="43.79625" lon="5.74881">
        <ele>346.39999389648</ele>
        <time>2021-01-13T10:35:26.000Z</time>
      </trkpt>
      <trkpt lat="43.79613" lon="5.74857">
        <ele>346.20001220703</ele>
        <time>2021-01-13T10:35:29.000Z</time>
      </trkpt>
      <trkpt lat="43.79604" lon="5.7484">
        <ele>345.79998779297</ele>
        <time>2021-01-13T10:35:31.000Z</time>
      </trkpt>
      <trkpt lat="43.79597" lon="5.7482">
        <ele>344</ele>
        <time>2021-01-13T10:35:33.000Z</time>
      </trkpt>
      <trkpt lat="43.79594" lon="5.74811">
        <ele>342.60000610352</ele>
        <time>2021-01-13T10:35:34.000Z</time>
      </trkpt>
      <trkpt lat="43.79591" lon="5.74802">
        <ele>340.79998779297</ele>
        <time>2021-01-13T10:35:35.000Z</time>
      </trkpt>
      <trkpt lat="43.79588" lon="5.74793">
        <ele>339</ele>
        <time>2021-01-13T10:35:36.000Z</time>
      </trkpt>
      <trkpt lat="43.79584" lon="5.74785">
        <ele>337.60000610352</ele>
        <time>2021-01-13T10:35:37.000Z</time>
      </trkpt>
      <trkpt lat="43.79576" lon="5.74768">
        <ele>336</ele>
        <time>2021-01-13T10:35:39.000Z</time>
      </trkpt>
      <trkpt lat="43.79569" lon="5.74752">
        <ele>333.79998779297</ele>
        <time>2021-01-13T10:35:41.000Z</time>
      </trkpt>
      <trkpt lat="43.79562" lon="5.74738">
        <ele>332</ele>
        <time>2021-01-13T10:35:43.000Z</time>
      </trkpt>
      <trkpt lat="43.79558" lon="5.74732">
        <ele>331.20001220703</ele>
        <time>2021-01-13T10:35:44.000Z</time>
      </trkpt>
      <trkpt lat="43.79555" lon="5.74726">
        <ele>330.79998779297</ele>
        <time>2021-01-13T10:35:45.000Z</time>
      </trkpt>
      <trkpt lat="43.79545" lon="5.74711">
        <ele>330</ele>
        <time>2021-01-13T10:35:48.000Z</time>
      </trkpt>
      <trkpt lat="43.79536" lon="5.74702">
        <ele>329.79998779297</ele>
        <time>2021-01-13T10:35:50.000Z</time>
      </trkpt>
      <trkpt lat="43.79519" lon="5.747">
        <ele>329.39999389648</ele>
        <time>2021-01-13T10:35:53.000Z</time>
      </trkpt>
      <trkpt lat="43.79509" lon="5.74705">
        <ele>329.20001220703</ele>
        <time>2021-01-13T10:35:55.000Z</time>
      </trkpt>
      <trkpt lat="43.79492" lon="5.74714">
        <ele>329.20001220703</ele>
        <time>2021-01-13T10:35:58.000Z</time>
      </trkpt>
      <trkpt lat="43.79479" lon="5.7472">
        <ele>328.79998779297</ele>
        <time>2021-01-13T10:36:00.000Z</time>
      </trkpt>
      <trkpt lat="43.79472" lon="5.7472">
        <ele>328.60000610352</ele>
        <time>2021-01-13T10:36:01.000Z</time>
      </trkpt>
      <trkpt lat="43.79465" lon="5.74719">
        <ele>328.60000610352</ele>
        <time>2021-01-13T10:36:02.000Z</time>
      </trkpt>
      <trkpt lat="43.79447" lon="5.74708">
        <ele>328.39999389648</ele>
        <time>2021-01-13T10:36:05.000Z</time>
      </trkpt>
      <trkpt lat="43.79441" lon="5.74704">
        <ele>328.20001220703</ele>
        <time>2021-01-13T10:36:06.000Z</time>
      </trkpt>
      <trkpt lat="43.79429" lon="5.74702">
        <ele>327.39999389648</ele>
        <time>2021-01-13T10:36:08.000Z</time>
      </trkpt>
      <trkpt lat="43.79423" lon="5.74704">
        <ele>325.79998779297</ele>
        <time>2021-01-13T10:36:09.000Z</time>
      </trkpt>
      <trkpt lat="43.79405" lon="5.74717">
        <ele>325.20001220703</ele>
        <time>2021-01-13T10:36:13.000Z</time>
      </trkpt>
      <trkpt lat="43.79401" lon="5.74722">
        <ele>325.20001220703</ele>
        <time>2021-01-13T10:36:14.000Z</time>
      </trkpt>
      <trkpt lat="43.79384" lon="5.7475">
        <ele>324.79998779297</ele>
        <time>2021-01-13T10:36:18.000Z</time>
      </trkpt>
      <trkpt lat="43.79368" lon="5.74774">
        <ele>324.60000610352</ele>
        <time>2021-01-13T10:36:21.000Z</time>
      </trkpt>
      <trkpt lat="43.79362" lon="5.7478">
        <ele>324.60000610352</ele>
        <time>2021-01-13T10:36:22.000Z</time>
      </trkpt>
      <trkpt lat="43.79342" lon="5.74778">
        <ele>324.20001220703</ele>
        <time>2021-01-13T10:36:25.000Z</time>
      </trkpt>
      <trkpt lat="43.79337" lon="5.74772">
        <ele>323.60000610352</ele>
        <time>2021-01-13T10:36:26.000Z</time>
      </trkpt>
      <trkpt lat="43.79329" lon="5.74758">
        <ele>322.20001220703</ele>
        <time>2021-01-13T10:36:28.000Z</time>
      </trkpt>
      <trkpt lat="43.7932" lon="5.74742">
        <ele>320.79998779297</ele>
        <time>2021-01-13T10:36:30.000Z</time>
      </trkpt>
      <trkpt lat="43.79314" lon="5.74734">
        <ele>320.20001220703</ele>
        <time>2021-01-13T10:36:31.000Z</time>
      </trkpt>
      <trkpt lat="43.79307" lon="5.74726">
        <ele>319.60000610352</ele>
        <time>2021-01-13T10:36:32.000Z</time>
      </trkpt>
      <trkpt lat="43.79283" lon="5.7471">
        <ele>318.39999389648</ele>
        <time>2021-01-13T10:36:35.000Z</time>
      </trkpt>
      <trkpt lat="43.79275" lon="5.74707">
        <ele>317.39999389648</ele>
        <time>2021-01-13T10:36:36.000Z</time>
      </trkpt>
      <trkpt lat="43.79262" lon="5.74704">
        <ele>316</ele>
        <time>2021-01-13T10:36:38.000Z</time>
      </trkpt>
      <trkpt lat="43.79258" lon="5.74703">
        <ele>314.60000610352</ele>
        <time>2021-01-13T10:36:39.000Z</time>
      </trkpt>
      <trkpt lat="43.79253" lon="5.74704">
        <ele>313.20001220703</ele>
        <time>2021-01-13T10:36:40.000Z</time>
      </trkpt>
      <trkpt lat="43.79249" lon="5.74707">
        <ele>311.39999389648</ele>
        <time>2021-01-13T10:36:41.000Z</time>
      </trkpt>
      <trkpt lat="43.79245" lon="5.74712">
        <ele>310.60000610352</ele>
        <time>2021-01-13T10:36:42.000Z</time>
      </trkpt>
      <trkpt lat="43.79242" lon="5.74718">
        <ele>310</ele>
        <time>2021-01-13T10:36:43.000Z</time>
      </trkpt>
      <trkpt lat="43.79239" lon="5.74724">
        <ele>309.60000610352</ele>
        <time>2021-01-13T10:36:44.000Z</time>
      </trkpt>
      <trkpt lat="43.79233" lon="5.74738">
        <ele>309</ele>
        <time>2021-01-13T10:36:46.000Z</time>
      </trkpt>
      <trkpt lat="43.79231" lon="5.74746">
        <ele>308.60000610352</ele>
        <time>2021-01-13T10:36:47.000Z</time>
      </trkpt>
      <trkpt lat="43.79227" lon="5.74761">
        <ele>308.20001220703</ele>
        <time>2021-01-13T10:36:49.000Z</time>
      </trkpt>
      <trkpt lat="43.79224" lon="5.74793">
        <ele>307.60000610352</ele>
        <time>2021-01-13T10:36:53.000Z</time>
      </trkpt>
      <trkpt lat="43.79223" lon="5.74852">
        <ele>307</ele>
        <time>2021-01-13T10:37:00.000Z</time>
      </trkpt>
      <trkpt lat="43.79222" lon="5.74879">
        <ele>306.60000610352</ele>
        <time>2021-01-13T10:37:03.000Z</time>
      </trkpt>
      <trkpt lat="43.79222" lon="5.74887">
        <ele>306.60000610352</ele>
        <time>2021-01-13T10:37:04.000Z</time>
      </trkpt>
      <trkpt lat="43.7922" lon="5.74903">
        <ele>306.60000610352</ele>
        <time>2021-01-13T10:37:06.000Z</time>
      </trkpt>
      <trkpt lat="43.7921" lon="5.74951">
        <ele>306.20001220703</ele>
        <time>2021-01-13T10:37:12.000Z</time>
      </trkpt>
      <trkpt lat="43.7919" lon="5.75006">
        <ele>305.79998779297</ele>
        <time>2021-01-13T10:37:19.000Z</time>
      </trkpt>
      <trkpt lat="43.79174" lon="5.75049">
        <ele>305.60000610352</ele>
        <time>2021-01-13T10:37:25.000Z</time>
      </trkpt>
      <trkpt lat="43.79169" lon="5.75063">
        <ele>305.39999389648</ele>
        <time>2021-01-13T10:37:27.000Z</time>
      </trkpt>
      <trkpt lat="43.79167" lon="5.75069">
        <ele>305.39999389648</ele>
        <time>2021-01-13T10:37:28.000Z</time>
      </trkpt>
      <trkpt lat="43.79158" lon="5.75082">
        <ele>305.20001220703</ele>
        <time>2021-01-13T10:37:31.000Z</time>
      </trkpt>
      <trkpt lat="43.7915" lon="5.75093">
        <ele>305</ele>
        <time>2021-01-13T10:37:35.000Z</time>
      </trkpt>
      <trkpt lat="43.79148" lon="5.75095">
        <ele>304.79998779297</ele>
        <time>2021-01-13T10:37:37.000Z</time>
      </trkpt>
      <trkpt lat="43.79146" lon="5.75096">
        <ele>304.39999389648</ele>
        <time>2021-01-13T10:37:40.000Z</time>
      </trkpt>
      <trkpt lat="43.79145" lon="5.75096">
        <ele>304</ele>
        <time>2021-01-13T10:37:41.000Z</time>
      </trkpt>
      <trkpt lat="43.79141" lon="5.75095">
        <ele>303.39999389648</ele>
        <time>2021-01-13T10:37:43.000Z</time>
      </trkpt>
      <trkpt lat="43.79138" lon="5.75092">
        <ele>302.79998779297</ele>
        <time>2021-01-13T10:37:46.000Z</time>
      </trkpt>
      <trkpt lat="43.79134" lon="5.75089">
        <ele>302.39999389648</ele>
        <time>2021-01-13T10:37:51.000Z</time>
      </trkpt>
      <trkpt lat="43.7913" lon="5.75086">
        <ele>302.20001220703</ele>
        <time>2021-01-13T10:37:55.000Z</time>
      </trkpt>
      <trkpt lat="43.79129" lon="5.75084">
        <ele>302.20001220703</ele>
        <time>2021-01-13T10:37:57.000Z</time>
      </trkpt>
      <trkpt lat="43.7913" lon="5.75083">
        <ele>302.20001220703</ele>
        <time>2021-01-13T10:38:06.000Z</time>
      </trkpt>
      <trkpt lat="43.7913" lon="5.7508">
        <ele>302.20001220703</ele>
        <time>2021-01-13T10:38:10.000Z</time>
      </trkpt>
      <trkpt lat="43.79131" lon="5.75075">
        <ele>302.20001220703</ele>
        <time>2021-01-13T10:38:12.000Z</time>
      </trkpt>
      <trkpt lat="43.79136" lon="5.75066">
        <ele>302</ele>
        <time>2021-01-13T10:38:16.000Z</time>
      </trkpt>
      <trkpt lat="43.79139" lon="5.75061">
        <ele>302</ele>
        <time>2021-01-13T10:38:18.000Z</time>
      </trkpt>
      <trkpt lat="43.79146" lon="5.75045">
        <ele>301.60000610352</ele>
        <time>2021-01-13T10:38:24.000Z</time>
      </trkpt>
      <trkpt lat="43.79151" lon="5.7503">
        <ele>301.60000610352</ele>
        <time>2021-01-13T10:38:29.000Z</time>
      </trkpt>
      <trkpt lat="43.79157" lon="5.75006">
        <ele>302</ele>
        <time>2021-01-13T10:38:34.000Z</time>
      </trkpt>
      <trkpt lat="43.79163" lon="5.74977">
        <ele>302.39999389648</ele>
        <time>2021-01-13T10:38:40.000Z</time>
      </trkpt>
      <trkpt lat="43.7917" lon="5.74952">
        <ele>302.39999389648</ele>
        <time>2021-01-13T10:38:45.000Z</time>
      </trkpt>
      <trkpt lat="43.79172" lon="5.74946">
        <ele>302.39999389648</ele>
        <time>2021-01-13T10:38:46.000Z</time>
      </trkpt>
      <trkpt lat="43.79175" lon="5.74919">
        <ele>302.60000610352</ele>
        <time>2021-01-13T10:38:51.000Z</time>
      </trkpt>
      <trkpt lat="43.79167" lon="5.74887">
        <ele>303</ele>
        <time>2021-01-13T10:38:58.000Z</time>
      </trkpt>
      <trkpt lat="43.79166" lon="5.7487">
        <ele>304</ele>
        <time>2021-01-13T10:39:02.000Z</time>
      </trkpt>
      <trkpt lat="43.79166" lon="5.74863">
        <ele>304.39999389648</ele>
        <time>2021-01-13T10:39:04.000Z</time>
      </trkpt>
      <trkpt lat="43.79165" lon="5.74849">
        <ele>305</ele>
        <time>2021-01-13T10:39:08.000Z</time>
      </trkpt>
      <trkpt lat="43.79165" lon="5.74843">
        <ele>305.39999389648</ele>
        <time>2021-01-13T10:39:10.000Z</time>
      </trkpt>
      <trkpt lat="43.79163" lon="5.74831">
        <ele>306.20001220703</ele>
        <time>2021-01-13T10:39:14.000Z</time>
      </trkpt>
      <trkpt lat="43.79162" lon="5.74822">
        <ele>307.20001220703</ele>
        <time>2021-01-13T10:39:17.000Z</time>
      </trkpt>
      <trkpt lat="43.79161" lon="5.74819">
        <ele>307.60000610352</ele>
        <time>2021-01-13T10:39:18.000Z</time>
      </trkpt>
      <trkpt lat="43.79161" lon="5.74813">
        <ele>308.39999389648</ele>
        <time>2021-01-13T10:39:20.000Z</time>
      </trkpt>
      <trkpt lat="43.79156" lon="5.74805">
        <ele>309.39999389648</ele>
        <time>2021-01-13T10:39:24.000Z</time>
      </trkpt>
      <trkpt lat="43.79155" lon="5.74802">
        <ele>309.60000610352</ele>
        <time>2021-01-13T10:39:25.000Z</time>
      </trkpt>
      <trkpt lat="43.79151" lon="5.74794">
        <ele>311</ele>
        <time>2021-01-13T10:39:29.000Z</time>
      </trkpt>
      <trkpt lat="43.7915" lon="5.74794">
        <ele>311.20001220703</ele>
        <time>2021-01-13T10:39:30.000Z</time>
      </trkpt>
      <trkpt lat="43.79146" lon="5.74792">
        <ele>312.20001220703</ele>
        <time>2021-01-13T10:39:33.000Z</time>
      </trkpt>
      <trkpt lat="43.79143" lon="5.7479">
        <ele>313.39999389648</ele>
        <time>2021-01-13T10:39:36.000Z</time>
      </trkpt>
      <trkpt lat="43.79141" lon="5.74789">
        <ele>313.60000610352</ele>
        <time>2021-01-13T10:39:37.000Z</time>
      </trkpt>
      <trkpt lat="43.79131" lon="5.74782">
        <ele>314.60000610352</ele>
        <time>2021-01-13T10:39:44.000Z</time>
      </trkpt>
      <trkpt lat="43.79126" lon="5.7477">
        <ele>316.20001220703</ele>
        <time>2021-01-13T10:39:50.000Z</time>
      </trkpt>
      <trkpt lat="43.79125" lon="5.74766">
        <ele>317.39999389648</ele>
        <time>2021-01-13T10:39:52.000Z</time>
      </trkpt>
      <trkpt lat="43.79123" lon="5.74757">
        <ele>318.60000610352</ele>
        <time>2021-01-13T10:39:56.000Z</time>
      </trkpt>
      <trkpt lat="43.79121" lon="5.7475">
        <ele>319.60000610352</ele>
        <time>2021-01-13T10:39:59.000Z</time>
      </trkpt>
      <trkpt lat="43.79118" lon="5.74744">
        <ele>320.79998779297</ele>
        <time>2021-01-13T10:40:02.000Z</time>
      </trkpt>
      <trkpt lat="43.79115" lon="5.74737">
        <ele>321.79998779297</ele>
        <time>2021-01-13T10:40:05.000Z</time>
      </trkpt>
      <trkpt lat="43.79114" lon="5.74736">
        <ele>322.20001220703</ele>
        <time>2021-01-13T10:40:06.000Z</time>
      </trkpt>
      <trkpt lat="43.79111" lon="5.74731">
        <ele>323</ele>
        <time>2021-01-13T10:40:08.000Z</time>
      </trkpt>
      <trkpt lat="43.79109" lon="5.74727">
        <ele>324.39999389648</ele>
        <time>2021-01-13T10:40:10.000Z</time>
      </trkpt>
      <trkpt lat="43.79105" lon="5.7472">
        <ele>325.60000610352</ele>
        <time>2021-01-13T10:40:13.000Z</time>
      </trkpt>
      <trkpt lat="43.79103" lon="5.74718">
        <ele>326</ele>
        <time>2021-01-13T10:40:14.000Z</time>
      </trkpt>
      <trkpt lat="43.79099" lon="5.74715">
        <ele>326.79998779297</ele>
        <time>2021-01-13T10:40:16.000Z</time>
      </trkpt>
      <trkpt lat="43.79093" lon="5.74709">
        <ele>327.79998779297</ele>
        <time>2021-01-13T10:40:19.000Z</time>
      </trkpt>
      <trkpt lat="43.79088" lon="5.74702">
        <ele>329.20001220703</ele>
        <time>2021-01-13T10:40:22.000Z</time>
      </trkpt>
      <trkpt lat="43.79079" lon="5.7469">
        <ele>330.20001220703</ele>
        <time>2021-01-13T10:40:27.000Z</time>
      </trkpt>
      <trkpt lat="43.79073" lon="5.74682">
        <ele>331</ele>
        <time>2021-01-13T10:40:30.000Z</time>
      </trkpt>
      <trkpt lat="43.79069" lon="5.74673">
        <ele>331.39999389648</ele>
        <time>2021-01-13T10:40:33.000Z</time>
      </trkpt>
      <trkpt lat="43.79061" lon="5.74664">
        <ele>332.20001220703</ele>
        <time>2021-01-13T10:40:37.000Z</time>
      </trkpt>
      <trkpt lat="43.7906" lon="5.74662">
        <ele>332.39999389648</ele>
        <time>2021-01-13T10:40:38.000Z</time>
      </trkpt>
      <trkpt lat="43.79053" lon="5.74651">
        <ele>333.60000610352</ele>
        <time>2021-01-13T10:40:42.000Z</time>
      </trkpt>
      <trkpt lat="43.7905" lon="5.74646">
        <ele>333.79998779297</ele>
        <time>2021-01-13T10:40:44.000Z</time>
      </trkpt>
      <trkpt lat="43.79047" lon="5.74643">
        <ele>335</ele>
        <time>2021-01-13T10:40:46.000Z</time>
      </trkpt>
      <trkpt lat="43.79045" lon="5.74636">
        <ele>335.79998779297</ele>
        <time>2021-01-13T10:40:49.000Z</time>
      </trkpt>
      <trkpt lat="43.79043" lon="5.74631">
        <ele>336.20001220703</ele>
        <time>2021-01-13T10:40:51.000Z</time>
      </trkpt>
      <trkpt lat="43.79037" lon="5.74622">
        <ele>337.20001220703</ele>
        <time>2021-01-13T10:40:56.000Z</time>
      </trkpt>
      <trkpt lat="43.79033" lon="5.74617">
        <ele>338.39999389648</ele>
        <time>2021-01-13T10:40:59.000Z</time>
      </trkpt>
      <trkpt lat="43.79029" lon="5.74614">
        <ele>339.60000610352</ele>
        <time>2021-01-13T10:41:02.000Z</time>
      </trkpt>
      <trkpt lat="43.79021" lon="5.74608">
        <ele>340.79998779297</ele>
        <time>2021-01-13T10:41:06.000Z</time>
      </trkpt>
      <trkpt lat="43.79019" lon="5.74607">
        <ele>341.20001220703</ele>
        <time>2021-01-13T10:41:07.000Z</time>
      </trkpt>
      <trkpt lat="43.79013" lon="5.74602">
        <ele>342</ele>
        <time>2021-01-13T10:41:10.000Z</time>
      </trkpt>
      <trkpt lat="43.79008" lon="5.74597">
        <ele>342.39999389648</ele>
        <time>2021-01-13T10:41:13.000Z</time>
      </trkpt>
      <trkpt lat="43.79002" lon="5.7459">
        <ele>343.20001220703</ele>
        <time>2021-01-13T10:41:16.000Z</time>
      </trkpt>
      <trkpt lat="43.78992" lon="5.74581">
        <ele>344.60000610352</ele>
        <time>2021-01-13T10:41:21.000Z</time>
      </trkpt>
      <trkpt lat="43.78985" lon="5.74577">
        <ele>345.60000610352</ele>
        <time>2021-01-13T10:41:24.000Z</time>
      </trkpt>
      <trkpt lat="43.78981" lon="5.74573">
        <ele>346</ele>
        <time>2021-01-13T10:41:26.000Z</time>
      </trkpt>
      <trkpt lat="43.78978" lon="5.74569">
        <ele>346.79998779297</ele>
        <time>2021-01-13T10:41:28.000Z</time>
      </trkpt>
      <trkpt lat="43.78973" lon="5.74561">
        <ele>348</ele>
        <time>2021-01-13T10:41:31.000Z</time>
      </trkpt>
      <trkpt lat="43.78968" lon="5.74553">
        <ele>349.20001220703</ele>
        <time>2021-01-13T10:41:34.000Z</time>
      </trkpt>
      <trkpt lat="43.78961" lon="5.74544">
        <ele>350.39999389648</ele>
        <time>2021-01-13T10:41:38.000Z</time>
      </trkpt>
      <trkpt lat="43.78958" lon="5.74538">
        <ele>350.79998779297</ele>
        <time>2021-01-13T10:41:40.000Z</time>
      </trkpt>
      <trkpt lat="43.78953" lon="5.74523">
        <ele>351.39999389648</ele>
        <time>2021-01-13T10:41:45.000Z</time>
      </trkpt>
      <trkpt lat="43.78951" lon="5.74521">
        <ele>351.39999389648</ele>
        <time>2021-01-13T10:41:46.000Z</time>
      </trkpt>
      <trkpt lat="43.78948" lon="5.74516">
        <ele>352.39999389648</ele>
        <time>2021-01-13T10:41:48.000Z</time>
      </trkpt>
      <trkpt lat="43.78944" lon="5.74514">
        <ele>353.39999389648</ele>
        <time>2021-01-13T10:41:50.000Z</time>
      </trkpt>
      <trkpt lat="43.78942" lon="5.74512">
        <ele>353.79998779297</ele>
        <time>2021-01-13T10:41:51.000Z</time>
      </trkpt>
      <trkpt lat="43.78936" lon="5.74504">
        <ele>354.60000610352</ele>
        <time>2021-01-13T10:41:55.000Z</time>
      </trkpt>
      <trkpt lat="43.78935" lon="5.74499">
        <ele>354.79998779297</ele>
        <time>2021-01-13T10:41:57.000Z</time>
      </trkpt>
      <trkpt lat="43.78931" lon="5.7449">
        <ele>355.79998779297</ele>
        <time>2021-01-13T10:42:02.000Z</time>
      </trkpt>
      <trkpt lat="43.78924" lon="5.7448">
        <ele>357</ele>
        <time>2021-01-13T10:42:07.000Z</time>
      </trkpt>
      <trkpt lat="43.78923" lon="5.74477">
        <ele>358</ele>
        <time>2021-01-13T10:42:08.000Z</time>
      </trkpt>
      <trkpt lat="43.78923" lon="5.74474">
        <ele>358.39999389648</ele>
        <time>2021-01-13T10:42:09.000Z</time>
      </trkpt>
      <trkpt lat="43.78918" lon="5.74455">
        <ele>359.20001220703</ele>
        <time>2021-01-13T10:42:15.000Z</time>
      </trkpt>
      <trkpt lat="43.78917" lon="5.74452">
        <ele>359.39999389648</ele>
        <time>2021-01-13T10:42:16.000Z</time>
      </trkpt>
      <trkpt lat="43.78914" lon="5.74448">
        <ele>360.60000610352</ele>
        <time>2021-01-13T10:42:18.000Z</time>
      </trkpt>
      <trkpt lat="43.7891" lon="5.74444">
        <ele>361.39999389648</ele>
        <time>2021-01-13T10:42:20.000Z</time>
      </trkpt>
      <trkpt lat="43.78906" lon="5.74437">
        <ele>361.79998779297</ele>
        <time>2021-01-13T10:42:23.000Z</time>
      </trkpt>
      <trkpt lat="43.78903" lon="5.74432">
        <ele>362</ele>
        <time>2021-01-13T10:42:25.000Z</time>
      </trkpt>
      <trkpt lat="43.789" lon="5.74423">
        <ele>363</ele>
        <time>2021-01-13T10:42:28.000Z</time>
      </trkpt>
      <trkpt lat="43.78899" lon="5.74413">
        <ele>363.79998779297</ele>
        <time>2021-01-13T10:42:31.000Z</time>
      </trkpt>
      <trkpt lat="43.78898" lon="5.74411">
        <ele>364.39999389648</ele>
        <time>2021-01-13T10:42:32.000Z</time>
      </trkpt>
      <trkpt lat="43.78893" lon="5.744">
        <ele>365.39999389648</ele>
        <time>2021-01-13T10:42:36.000Z</time>
      </trkpt>
      <trkpt lat="43.78891" lon="5.74398">
        <ele>365.39999389648</ele>
        <time>2021-01-13T10:42:37.000Z</time>
      </trkpt>
      <trkpt lat="43.78883" lon="5.74391">
        <ele>366.60000610352</ele>
        <time>2021-01-13T10:42:41.000Z</time>
      </trkpt>
      <trkpt lat="43.78881" lon="5.74389">
        <ele>367</ele>
        <time>2021-01-13T10:42:42.000Z</time>
      </trkpt>
      <trkpt lat="43.78878" lon="5.74384">
        <ele>367.79998779297</ele>
        <time>2021-01-13T10:42:44.000Z</time>
      </trkpt>
      <trkpt lat="43.78871" lon="5.74376">
        <ele>369</ele>
        <time>2021-01-13T10:42:48.000Z</time>
      </trkpt>
      <trkpt lat="43.78868" lon="5.74372">
        <ele>369.79998779297</ele>
        <time>2021-01-13T10:42:50.000Z</time>
      </trkpt>
      <trkpt lat="43.78866" lon="5.74371">
        <ele>370.20001220703</ele>
        <time>2021-01-13T10:42:51.000Z</time>
      </trkpt>
      <trkpt lat="43.78861" lon="5.74367">
        <ele>371.60000610352</ele>
        <time>2021-01-13T10:42:54.000Z</time>
      </trkpt>
      <trkpt lat="43.78855" lon="5.74361">
        <ele>372.60000610352</ele>
        <time>2021-01-13T10:42:57.000Z</time>
      </trkpt>
      <trkpt lat="43.78848" lon="5.74354">
        <ele>373.60000610352</ele>
        <time>2021-01-13T10:43:01.000Z</time>
      </trkpt>
      <trkpt lat="43.78843" lon="5.74353">
        <ele>374.60000610352</ele>
        <time>2021-01-13T10:43:03.000Z</time>
      </trkpt>
      <trkpt lat="43.78838" lon="5.74351">
        <ele>374.79998779297</ele>
        <time>2021-01-13T10:43:05.000Z</time>
      </trkpt>
      <trkpt lat="43.78831" lon="5.74348">
        <ele>376</ele>
        <time>2021-01-13T10:43:08.000Z</time>
      </trkpt>
      <trkpt lat="43.78826" lon="5.74345">
        <ele>376.79998779297</ele>
        <time>2021-01-13T10:43:10.000Z</time>
      </trkpt>
      <trkpt lat="43.78822" lon="5.74343">
        <ele>377.20001220703</ele>
        <time>2021-01-13T10:43:12.000Z</time>
      </trkpt>
      <trkpt lat="43.78813" lon="5.74335">
        <ele>378.39999389648</ele>
        <time>2021-01-13T10:43:16.000Z</time>
      </trkpt>
      <trkpt lat="43.78809" lon="5.74332">
        <ele>379.20001220703</ele>
        <time>2021-01-13T10:43:18.000Z</time>
      </trkpt>
      <trkpt lat="43.78807" lon="5.7433">
        <ele>379.79998779297</ele>
        <time>2021-01-13T10:43:19.000Z</time>
      </trkpt>
      <trkpt lat="43.78803" lon="5.74325">
        <ele>381.20001220703</ele>
        <time>2021-01-13T10:43:22.000Z</time>
      </trkpt>
      <trkpt lat="43.78802" lon="5.74323">
        <ele>381.60000610352</ele>
        <time>2021-01-13T10:43:23.000Z</time>
      </trkpt>
      <trkpt lat="43.78802" lon="5.74322">
        <ele>382.60000610352</ele>
        <time>2021-01-13T10:43:25.000Z</time>
      </trkpt>
      <trkpt lat="43.78802" lon="5.74322">
        <ele>384.20001220703</ele>
        <time>2021-01-13T10:43:28.000Z</time>
      </trkpt>
      <trkpt lat="43.78802" lon="5.74321">
        <ele>385.39999389648</ele>
        <time>2021-01-13T10:43:30.000Z</time>
      </trkpt>
      <trkpt lat="43.78802" lon="5.74321">
        <ele>385.79998779297</ele>
        <time>2021-01-13T10:43:31.000Z</time>
      </trkpt>
      <trkpt lat="43.78802" lon="5.74321">
        <ele>386</ele>
        <time>2021-01-13T10:43:47.000Z</time>
      </trkpt>
      <trkpt lat="43.78801" lon="5.7432">
        <ele>386</ele>
        <time>2021-01-13T10:44:05.000Z</time>
      </trkpt>
      <trkpt lat="43.78794" lon="5.74313">
        <ele>386.20001220703</ele>
        <time>2021-01-13T10:44:10.000Z</time>
      </trkpt>
      <trkpt lat="43.78789" lon="5.74309">
        <ele>386.39999389648</ele>
        <time>2021-01-13T10:44:14.000Z</time>
      </trkpt>
      <trkpt lat="43.78787" lon="5.74305">
        <ele>386.60000610352</ele>
        <time>2021-01-13T10:44:16.000Z</time>
      </trkpt>
      <trkpt lat="43.78781" lon="5.74291">
        <ele>387.79998779297</ele>
        <time>2021-01-13T10:44:23.000Z</time>
      </trkpt>
      <trkpt lat="43.78779" lon="5.74281">
        <ele>388.79998779297</ele>
        <time>2021-01-13T10:44:28.000Z</time>
      </trkpt>
      <trkpt lat="43.78779" lon="5.7428">
        <ele>388.79998779297</ele>
        <time>2021-01-13T10:44:30.000Z</time>
      </trkpt>
      <trkpt lat="43.7878" lon="5.74278">
        <ele>389.79998779297</ele>
        <time>2021-01-13T10:44:34.000Z</time>
      </trkpt>
      <trkpt lat="43.7878" lon="5.74277">
        <ele>390.39999389648</ele>
        <time>2021-01-13T10:44:35.000Z</time>
      </trkpt>
      <trkpt lat="43.7878" lon="5.74273">
        <ele>390.79998779297</ele>
        <time>2021-01-13T10:44:37.000Z</time>
      </trkpt>
      <trkpt lat="43.78778" lon="5.74265">
        <ele>391.20001220703</ele>
        <time>2021-01-13T10:44:40.000Z</time>
      </trkpt>
      <trkpt lat="43.78777" lon="5.74252">
        <ele>391.79998779297</ele>
        <time>2021-01-13T10:44:45.000Z</time>
      </trkpt>
      <trkpt lat="43.78776" lon="5.74249">
        <ele>391.79998779297</ele>
        <time>2021-01-13T10:44:46.000Z</time>
      </trkpt>
      <trkpt lat="43.78773" lon="5.74237">
        <ele>392.79998779297</ele>
        <time>2021-01-13T10:44:51.000Z</time>
      </trkpt>
      <trkpt lat="43.78772" lon="5.74232">
        <ele>394</ele>
        <time>2021-01-13T10:44:53.000Z</time>
      </trkpt>
      <trkpt lat="43.78766" lon="5.74216">
        <ele>395</ele>
        <time>2021-01-13T10:45:00.000Z</time>
      </trkpt>
      <trkpt lat="43.78765" lon="5.74208">
        <ele>395.39999389648</ele>
        <time>2021-01-13T10:45:03.000Z</time>
      </trkpt>
      <trkpt lat="43.78763" lon="5.742">
        <ele>396.60000610352</ele>
        <time>2021-01-13T10:45:06.000Z</time>
      </trkpt>
      <trkpt lat="43.78761" lon="5.74195">
        <ele>397.79998779297</ele>
        <time>2021-01-13T10:45:08.000Z</time>
      </trkpt>
      <trkpt lat="43.7876" lon="5.7419">
        <ele>399</ele>
        <time>2021-01-13T10:45:10.000Z</time>
      </trkpt>
      <trkpt lat="43.7876" lon="5.74187">
        <ele>399.60000610352</ele>
        <time>2021-01-13T10:45:11.000Z</time>
      </trkpt>
      <trkpt lat="43.78759" lon="5.74184">
        <ele>400.20001220703</ele>
        <time>2021-01-13T10:45:12.000Z</time>
      </trkpt>
      <trkpt lat="43.78758" lon="5.7418">
        <ele>400.39999389648</ele>
        <time>2021-01-13T10:45:14.000Z</time>
      </trkpt>
      <trkpt lat="43.78754" lon="5.74178">
        <ele>401.20001220703</ele>
        <time>2021-01-13T10:45:16.000Z</time>
      </trkpt>
      <trkpt lat="43.78752" lon="5.74175">
        <ele>402.39999389648</ele>
        <time>2021-01-13T10:45:18.000Z</time>
      </trkpt>
      <trkpt lat="43.78752" lon="5.7417">
        <ele>403.39999389648</ele>
        <time>2021-01-13T10:45:20.000Z</time>
      </trkpt>
      <trkpt lat="43.78752" lon="5.74167">
        <ele>403.79998779297</ele>
        <time>2021-01-13T10:45:21.000Z</time>
      </trkpt>
      <trkpt lat="43.78751" lon="5.74162">
        <ele>404.60000610352</ele>
        <time>2021-01-13T10:45:23.000Z</time>
      </trkpt>
      <trkpt lat="43.7875" lon="5.74157">
        <ele>405</ele>
        <time>2021-01-13T10:45:25.000Z</time>
      </trkpt>
      <trkpt lat="43.7875" lon="5.74155">
        <ele>405.20001220703</ele>
        <time>2021-01-13T10:45:26.000Z</time>
      </trkpt>
      <trkpt lat="43.7875" lon="5.74147">
        <ele>406</ele>
        <time>2021-01-13T10:45:29.000Z</time>
      </trkpt>
      <trkpt lat="43.78749" lon="5.74139">
        <ele>407</ele>
        <time>2021-01-13T10:45:32.000Z</time>
      </trkpt>
      <trkpt lat="43.78748" lon="5.74133">
        <ele>407.20001220703</ele>
        <time>2021-01-13T10:45:34.000Z</time>
      </trkpt>
      <trkpt lat="43.78751" lon="5.74118">
        <ele>408</ele>
        <time>2021-01-13T10:45:40.000Z</time>
      </trkpt>
      <trkpt lat="43.78751" lon="5.74113">
        <ele>408.20001220703</ele>
        <time>2021-01-13T10:45:42.000Z</time>
      </trkpt>
      <trkpt lat="43.78751" lon="5.74106">
        <ele>409.20001220703</ele>
        <time>2021-01-13T10:45:45.000Z</time>
      </trkpt>
      <trkpt lat="43.78751" lon="5.74098">
        <ele>409.79998779297</ele>
        <time>2021-01-13T10:45:49.000Z</time>
      </trkpt>
      <trkpt lat="43.78751" lon="5.74096">
        <ele>410</ele>
        <time>2021-01-13T10:45:50.000Z</time>
      </trkpt>
      <trkpt lat="43.78748" lon="5.74081">
        <ele>411.20001220703</ele>
        <time>2021-01-13T10:45:57.000Z</time>
      </trkpt>
      <trkpt lat="43.78746" lon="5.74072">
        <ele>412.20001220703</ele>
        <time>2021-01-13T10:46:01.000Z</time>
      </trkpt>
      <trkpt lat="43.78746" lon="5.74065">
        <ele>412.60000610352</ele>
        <time>2021-01-13T10:46:04.000Z</time>
      </trkpt>
      <trkpt lat="43.78745" lon="5.74055">
        <ele>413.20001220703</ele>
        <time>2021-01-13T10:46:09.000Z</time>
      </trkpt>
      <trkpt lat="43.78745" lon="5.74055">
        <ele>413.39999389648</ele>
        <time>2021-01-13T10:46:10.000Z</time>
      </trkpt>
      <trkpt lat="43.78745" lon="5.74054">
        <ele>414.39999389648</ele>
        <time>2021-01-13T10:46:14.000Z</time>
      </trkpt>
      <trkpt lat="43.78745" lon="5.74054">
        <ele>415.60000610352</ele>
        <time>2021-01-13T10:46:18.000Z</time>
      </trkpt>
      <trkpt lat="43.78745" lon="5.74054">
        <ele>415.79998779297</ele>
        <time>2021-01-13T10:46:20.000Z</time>
      </trkpt>
      <trkpt lat="43.78745" lon="5.74052">
        <ele>416</ele>
        <time>2021-01-13T10:46:31.000Z</time>
      </trkpt>
      <trkpt lat="43.78745" lon="5.74052">
        <ele>416.39999389648</ele>
        <time>2021-01-13T10:46:40.000Z</time>
      </trkpt>
      <trkpt lat="43.78745" lon="5.74052">
        <ele>416.39999389648</ele>
        <time>2021-01-13T10:46:45.000Z</time>
      </trkpt>
      <trkpt lat="43.78745" lon="5.74052">
        <ele>416.60000610352</ele>
        <time>2021-01-13T10:46:56.000Z</time>
      </trkpt>
      <trkpt lat="43.78746" lon="5.74052">
        <ele>416</ele>
        <time>2021-01-13T10:47:06.000Z</time>
      </trkpt>
      <trkpt lat="43.78745" lon="5.74052">
        <ele>416</ele>
        <time>2021-01-13T10:47:12.000Z</time>
      </trkpt>
      <trkpt lat="43.78744" lon="5.74055">
        <ele>416.60000610352</ele>
        <time>2021-01-13T10:47:18.000Z</time>
      </trkpt>
      <trkpt lat="43.78743" lon="5.74054">
        <ele>416.60000610352</ele>
        <time>2021-01-13T10:47:21.000Z</time>
      </trkpt>
      <trkpt lat="43.78743" lon="5.74054">
        <ele>416.60000610352</ele>
        <time>2021-01-13T10:47:27.000Z</time>
      </trkpt>
      <trkpt lat="43.78744" lon="5.74054">
        <ele>416.60000610352</ele>
        <time>2021-01-13T10:47:37.000Z</time>
      </trkpt>
      <trkpt lat="43.78744" lon="5.74058">
        <ele>416.60000610352</ele>
        <time>2021-01-13T10:47:48.000Z</time>
      </trkpt>
      <trkpt lat="43.78744" lon="5.74061">
        <ele>416.60000610352</ele>
        <time>2021-01-13T10:47:51.000Z</time>
      </trkpt>
      <trkpt lat="43.78744" lon="5.74064">
        <ele>416.39999389648</ele>
        <time>2021-01-13T10:47:55.000Z</time>
      </trkpt>
      <trkpt lat="43.78744" lon="5.74064">
        <ele>415.60000610352</ele>
        <time>2021-01-13T10:48:04.000Z</time>
      </trkpt>
      <trkpt lat="43.78744" lon="5.74064">
        <ele>415.60000610352</ele>
        <time>2021-01-13T10:48:05.000Z</time>
      </trkpt>
      <trkpt lat="43.78744" lon="5.74064">
        <ele>415.20001220703</ele>
        <time>2021-01-13T10:48:17.000Z</time>
      </trkpt>
      <trkpt lat="43.78744" lon="5.74064">
        <ele>415</ele>
        <time>2021-01-13T10:48:35.000Z</time>
      </trkpt>
      <trkpt lat="43.78744" lon="5.74064">
        <ele>415.20001220703</ele>
        <time>2021-01-13T10:48:56.000Z</time>
      </trkpt>
      <trkpt lat="43.78744" lon="5.74064">
        <ele>415.39999389648</ele>
        <time>2021-01-13T10:49:14.000Z</time>
      </trkpt>
      <trkpt lat="43.78744" lon="5.74066">
        <ele>415.20001220703</ele>
        <time>2021-01-13T10:49:28.000Z</time>
      </trkpt>
      <trkpt lat="43.78745" lon="5.7407">
        <ele>415</ele>
        <time>2021-01-13T10:49:36.000Z</time>
      </trkpt>
      <trkpt lat="43.78749" lon="5.7408">
        <ele>414.79998779297</ele>
        <time>2021-01-13T10:49:45.000Z</time>
      </trkpt>
      <trkpt lat="43.78752" lon="5.74089">
        <ele>414.20001220703</ele>
        <time>2021-01-13T10:49:53.000Z</time>
      </trkpt>
      <trkpt lat="43.78752" lon="5.74091">
        <ele>414.20001220703</ele>
        <time>2021-01-13T10:49:54.000Z</time>
      </trkpt>
      <trkpt lat="43.78754" lon="5.74097">
        <ele>413.39999389648</ele>
        <time>2021-01-13T10:49:59.000Z</time>
      </trkpt>
      <trkpt lat="43.78755" lon="5.74098">
        <ele>413.20001220703</ele>
        <time>2021-01-13T10:50:00.000Z</time>
      </trkpt>
      <trkpt lat="43.78755" lon="5.74099">
        <ele>413</ele>
        <time>2021-01-13T10:50:01.000Z</time>
      </trkpt>
      <trkpt lat="43.78758" lon="5.74106">
        <ele>412.20001220703</ele>
        <time>2021-01-13T10:50:08.000Z</time>
      </trkpt>
      <trkpt lat="43.7876" lon="5.74112">
        <ele>412</ele>
        <time>2021-01-13T10:50:13.000Z</time>
      </trkpt>
      <trkpt lat="43.78762" lon="5.74116">
        <ele>412</ele>
        <time>2021-01-13T10:50:16.000Z</time>
      </trkpt>
      <trkpt lat="43.78764" lon="5.74122">
        <ele>411.39999389648</ele>
        <time>2021-01-13T10:50:22.000Z</time>
      </trkpt>
      <trkpt lat="43.78766" lon="5.7413">
        <ele>410.79998779297</ele>
        <time>2021-01-13T10:50:26.000Z</time>
      </trkpt>
      <trkpt lat="43.78768" lon="5.74134">
        <ele>410.60000610352</ele>
        <time>2021-01-13T10:50:28.000Z</time>
      </trkpt>
      <trkpt lat="43.78773" lon="5.74152">
        <ele>409.79998779297</ele>
        <time>2021-01-13T10:50:34.000Z</time>
      </trkpt>
      <trkpt lat="43.78773" lon="5.74155">
        <ele>409.39999389648</ele>
        <time>2021-01-13T10:50:35.000Z</time>
      </trkpt>
      <trkpt lat="43.78771" lon="5.74166">
        <ele>408.60000610352</ele>
        <time>2021-01-13T10:50:38.000Z</time>
      </trkpt>
      <trkpt lat="43.7877" lon="5.74173">
        <ele>408</ele>
        <time>2021-01-13T10:50:40.000Z</time>
      </trkpt>
      <trkpt lat="43.78769" lon="5.74182">
        <ele>407.39999389648</ele>
        <time>2021-01-13T10:50:42.000Z</time>
      </trkpt>
      <trkpt lat="43.7877" lon="5.74195">
        <ele>406.20001220703</ele>
        <time>2021-01-13T10:50:45.000Z</time>
      </trkpt>
      <trkpt lat="43.78773" lon="5.74204">
        <ele>405</ele>
        <time>2021-01-13T10:50:47.000Z</time>
      </trkpt>
      <trkpt lat="43.78776" lon="5.74219">
        <ele>403.79998779297</ele>
        <time>2021-01-13T10:50:50.000Z</time>
      </trkpt>
      <trkpt lat="43.78779" lon="5.74226">
        <ele>403</ele>
        <time>2021-01-13T10:50:52.000Z</time>
      </trkpt>
      <trkpt lat="43.7878" lon="5.74228">
        <ele>402.20001220703</ele>
        <time>2021-01-13T10:50:53.000Z</time>
      </trkpt>
      <trkpt lat="43.78785" lon="5.74229">
        <ele>400.79998779297</ele>
        <time>2021-01-13T10:50:56.000Z</time>
      </trkpt>
      <trkpt lat="43.78785" lon="5.74229">
        <ele>399.79998779297</ele>
        <time>2021-01-13T10:50:58.000Z</time>
      </trkpt>
      <trkpt lat="43.78785" lon="5.74229">
        <ele>398.60000610352</ele>
        <time>2021-01-13T10:51:00.000Z</time>
      </trkpt>
      <trkpt lat="43.78785" lon="5.74229">
        <ele>398.39999389648</ele>
        <time>2021-01-13T10:51:01.000Z</time>
      </trkpt>
      <trkpt lat="43.78785" lon="5.74229">
        <ele>397.60000610352</ele>
        <time>2021-01-13T10:51:04.000Z</time>
      </trkpt>
      <trkpt lat="43.78785" lon="5.74229">
        <ele>397</ele>
        <time>2021-01-13T10:51:12.000Z</time>
      </trkpt>
      <trkpt lat="43.78786" lon="5.74232">
        <ele>396.79998779297</ele>
        <time>2021-01-13T10:51:19.000Z</time>
      </trkpt>
      <trkpt lat="43.78786" lon="5.74232">
        <ele>396.60000610352</ele>
        <time>2021-01-13T10:51:22.000Z</time>
      </trkpt>
      <trkpt lat="43.78787" lon="5.74235">
        <ele>396.39999389648</ele>
        <time>2021-01-13T10:51:27.000Z</time>
      </trkpt>
      <trkpt lat="43.78787" lon="5.74237">
        <ele>396.20001220703</ele>
        <time>2021-01-13T10:51:28.000Z</time>
      </trkpt>
      <trkpt lat="43.78792" lon="5.74252">
        <ele>395.79998779297</ele>
        <time>2021-01-13T10:51:36.000Z</time>
      </trkpt>
      <trkpt lat="43.78794" lon="5.74255">
        <ele>395.39999389648</ele>
        <time>2021-01-13T10:51:38.000Z</time>
      </trkpt>
      <trkpt lat="43.78795" lon="5.74256">
        <ele>394.79998779297</ele>
        <time>2021-01-13T10:51:41.000Z</time>
      </trkpt>
      <trkpt lat="43.78795" lon="5.74256">
        <ele>394.39999389648</ele>
        <time>2021-01-13T10:51:43.000Z</time>
      </trkpt>
      <trkpt lat="43.78795" lon="5.74256">
        <ele>393.60000610352</ele>
        <time>2021-01-13T10:51:47.000Z</time>
      </trkpt>
      <trkpt lat="43.78795" lon="5.74255">
        <ele>393.20001220703</ele>
        <time>2021-01-13T10:51:50.000Z</time>
      </trkpt>
      <trkpt lat="43.78795" lon="5.74255">
        <ele>393</ele>
        <time>2021-01-13T10:51:55.000Z</time>
      </trkpt>
      <trkpt lat="43.78795" lon="5.74255">
        <ele>392.60000610352</ele>
        <time>2021-01-13T10:52:42.000Z</time>
      </trkpt>
      <trkpt lat="43.78795" lon="5.74255">
        <ele>392.20001220703</ele>
        <time>2021-01-13T10:53:46.000Z</time>
      </trkpt>
      <trkpt lat="43.78795" lon="5.74255">
        <ele>392.20001220703</ele>
        <time>2021-01-13T10:53:47.000Z</time>
      </trkpt>
      <trkpt lat="43.78795" lon="5.74255">
        <ele>393</ele>
        <time>2021-01-13T10:54:32.000Z</time>
      </trkpt>
      <trkpt lat="43.78795" lon="5.74255">
        <ele>393.39999389648</ele>
        <time>2021-01-13T10:54:48.000Z</time>
      </trkpt>
      <trkpt lat="43.78796" lon="5.74255">
        <ele>393.39999389648</ele>
        <time>2021-01-13T10:55:35.000Z</time>
      </trkpt>
      <trkpt lat="43.78795" lon="5.74256">
        <ele>393.39999389648</ele>
        <time>2021-01-13T10:55:43.000Z</time>
      </trkpt>
      <trkpt lat="43.78795" lon="5.74256">
        <ele>394.20001220703</ele>
        <time>2021-01-13T10:56:01.000Z</time>
      </trkpt>
      <trkpt lat="43.78795" lon="5.74256">
        <ele>394.20001220703</ele>
        <time>2021-01-13T10:56:04.000Z</time>
      </trkpt>
      <trkpt lat="43.78795" lon="5.74256">
        <ele>394.39999389648</ele>
        <time>2021-01-13T10:56:16.000Z</time>
      </trkpt>
      <trkpt lat="43.78795" lon="5.74256">
        <ele>394.60000610352</ele>
        <time>2021-01-13T10:56:26.000Z</time>
      </trkpt>
      <trkpt lat="43.78796" lon="5.74255">
        <ele>394.39999389648</ele>
        <time>2021-01-13T10:56:32.000Z</time>
      </trkpt>
      <trkpt lat="43.78796" lon="5.74255">
        <ele>393.39999389648</ele>
        <time>2021-01-13T10:56:54.000Z</time>
      </trkpt>
      <trkpt lat="43.78797" lon="5.74258">
        <ele>393.60000610352</ele>
        <time>2021-01-13T10:57:58.000Z</time>
      </trkpt>
      <trkpt lat="43.78798" lon="5.74261">
        <ele>393.60000610352</ele>
        <time>2021-01-13T10:58:01.000Z</time>
      </trkpt>
      <trkpt lat="43.78799" lon="5.74266">
        <ele>393.79998779297</ele>
        <time>2021-01-13T10:58:05.000Z</time>
      </trkpt>
      <trkpt lat="43.78799" lon="5.74268">
        <ele>393.79998779297</ele>
        <time>2021-01-13T10:58:09.000Z</time>
      </trkpt>
      <trkpt lat="43.78799" lon="5.74268">
        <ele>393.60000610352</ele>
        <time>2021-01-13T10:58:11.000Z</time>
      </trkpt>
      <trkpt lat="43.78799" lon="5.74269">
        <ele>393.20001220703</ele>
        <time>2021-01-13T10:58:17.000Z</time>
      </trkpt>
      <trkpt lat="43.78799" lon="5.74271">
        <ele>393.20001220703</ele>
        <time>2021-01-13T10:58:24.000Z</time>
      </trkpt>
      <trkpt lat="43.78799" lon="5.74271">
        <ele>393.20001220703</ele>
        <time>2021-01-13T10:58:27.000Z</time>
      </trkpt>
      <trkpt lat="43.78799" lon="5.74272">
        <ele>393</ele>
        <time>2021-01-13T10:58:34.000Z</time>
      </trkpt>
      <trkpt lat="43.78799" lon="5.74277">
        <ele>393</ele>
        <time>2021-01-13T10:58:42.000Z</time>
      </trkpt>
      <trkpt lat="43.78799" lon="5.74278">
        <ele>393.20001220703</ele>
        <time>2021-01-13T10:58:48.000Z</time>
      </trkpt>
      <trkpt lat="43.788" lon="5.74284">
        <ele>393.20001220703</ele>
        <time>2021-01-13T10:58:55.000Z</time>
      </trkpt>
      <trkpt lat="43.78806" lon="5.74293">
        <ele>392.39999389648</ele>
        <time>2021-01-13T10:59:03.000Z</time>
      </trkpt>
      <trkpt lat="43.78808" lon="5.74295">
        <ele>392.20001220703</ele>
        <time>2021-01-13T10:59:06.000Z</time>
      </trkpt>
      <trkpt lat="43.78809" lon="5.74297">
        <ele>392</ele>
        <time>2021-01-13T10:59:09.000Z</time>
      </trkpt>
      <trkpt lat="43.78809" lon="5.74297">
        <ele>391.39999389648</ele>
        <time>2021-01-13T10:59:15.000Z</time>
      </trkpt>
      <trkpt lat="43.78809" lon="5.74297">
        <ele>391.20001220703</ele>
        <time>2021-01-13T10:59:18.000Z</time>
      </trkpt>
      <trkpt lat="43.78811" lon="5.743">
        <ele>391</ele>
        <time>2021-01-13T10:59:23.000Z</time>
      </trkpt>
      <trkpt lat="43.78812" lon="5.74301">
        <ele>390.20001220703</ele>
        <time>2021-01-13T10:59:29.000Z</time>
      </trkpt>
      <trkpt lat="43.78812" lon="5.74301">
        <ele>389.79998779297</ele>
        <time>2021-01-13T10:59:31.000Z</time>
      </trkpt>
      <trkpt lat="43.78812" lon="5.74301">
        <ele>389.20001220703</ele>
        <time>2021-01-13T10:59:33.000Z</time>
      </trkpt>
      <trkpt lat="43.78812" lon="5.74301">
        <ele>389.20001220703</ele>
        <time>2021-01-13T10:59:48.000Z</time>
      </trkpt>
      <trkpt lat="43.78813" lon="5.743">
        <ele>389.39999389648</ele>
        <time>2021-01-13T11:00:20.000Z</time>
      </trkpt>
      <trkpt lat="43.78813" lon="5.743">
        <ele>389.20001220703</ele>
        <time>2021-01-13T11:00:49.000Z</time>
      </trkpt>
      <trkpt lat="43.78813" lon="5.743">
        <ele>389.20001220703</ele>
        <time>2021-01-13T11:01:16.000Z</time>
      </trkpt>
      <trkpt lat="43.78813" lon="5.743">
        <ele>389</ele>
        <time>2021-01-13T11:01:39.000Z</time>
      </trkpt>
      <trkpt lat="43.78812" lon="5.743">
        <ele>388.79998779297</ele>
        <time>2021-01-13T11:01:54.000Z</time>
      </trkpt>
      <trkpt lat="43.78813" lon="5.743">
        <ele>389.39999389648</ele>
        <time>2021-01-13T11:02:08.000Z</time>
      </trkpt>
      <trkpt lat="43.78813" lon="5.74302">
        <ele>389.20001220703</ele>
        <time>2021-01-13T11:02:15.000Z</time>
      </trkpt>
      <trkpt lat="43.78815" lon="5.74303">
        <ele>388.60000610352</ele>
        <time>2021-01-13T11:02:22.000Z</time>
      </trkpt>
      <trkpt lat="43.78815" lon="5.74303">
        <ele>388</ele>
        <time>2021-01-13T11:02:26.000Z</time>
      </trkpt>
      <trkpt lat="43.78817" lon="5.74304">
        <ele>387.79998779297</ele>
        <time>2021-01-13T11:02:28.000Z</time>
      </trkpt>
      <trkpt lat="43.78818" lon="5.74304">
        <ele>387.60000610352</ele>
        <time>2021-01-13T11:02:29.000Z</time>
      </trkpt>
      <trkpt lat="43.7883" lon="5.7431">
        <ele>387.39999389648</ele>
        <time>2021-01-13T11:02:34.000Z</time>
      </trkpt>
      <trkpt lat="43.78839" lon="5.74315">
        <ele>386.79998779297</ele>
        <time>2021-01-13T11:02:37.000Z</time>
      </trkpt>
      <trkpt lat="43.78845" lon="5.7432">
        <ele>386</ele>
        <time>2021-01-13T11:02:39.000Z</time>
      </trkpt>
      <trkpt lat="43.78851" lon="5.74324">
        <ele>385.60000610352</ele>
        <time>2021-01-13T11:02:41.000Z</time>
      </trkpt>
      <trkpt lat="43.78857" lon="5.74325">
        <ele>384.60000610352</ele>
        <time>2021-01-13T11:02:43.000Z</time>
      </trkpt>
      <trkpt lat="43.78859" lon="5.74326">
        <ele>383.60000610352</ele>
        <time>2021-01-13T11:02:44.000Z</time>
      </trkpt>
      <trkpt lat="43.78862" lon="5.74328">
        <ele>382.60000610352</ele>
        <time>2021-01-13T11:02:45.000Z</time>
      </trkpt>
      <trkpt lat="43.78867" lon="5.74332">
        <ele>381.20001220703</ele>
        <time>2021-01-13T11:02:47.000Z</time>
      </trkpt>
      <trkpt lat="43.78873" lon="5.74336">
        <ele>380</ele>
        <time>2021-01-13T11:02:49.000Z</time>
      </trkpt>
      <trkpt lat="43.78875" lon="5.74337">
        <ele>379.60000610352</ele>
        <time>2021-01-13T11:02:50.000Z</time>
      </trkpt>
      <trkpt lat="43.78877" lon="5.74339">
        <ele>378.79998779297</ele>
        <time>2021-01-13T11:02:51.000Z</time>
      </trkpt>
      <trkpt lat="43.78881" lon="5.74343">
        <ele>377.79998779297</ele>
        <time>2021-01-13T11:02:53.000Z</time>
      </trkpt>
      <trkpt lat="43.78885" lon="5.74346">
        <ele>376.60000610352</ele>
        <time>2021-01-13T11:02:55.000Z</time>
      </trkpt>
      <trkpt lat="43.78885" lon="5.74348">
        <ele>375</ele>
        <time>2021-01-13T11:02:57.000Z</time>
      </trkpt>
      <trkpt lat="43.78886" lon="5.74347">
        <ele>374.39999389648</ele>
        <time>2021-01-13T11:02:59.000Z</time>
      </trkpt>
      <trkpt lat="43.78886" lon="5.74347">
        <ele>374</ele>
        <time>2021-01-13T11:03:01.000Z</time>
      </trkpt>
      <trkpt lat="43.78886" lon="5.74348">
        <ele>373.39999389648</ele>
        <time>2021-01-13T11:03:08.000Z</time>
      </trkpt>
      <trkpt lat="43.78886" lon="5.74348">
        <ele>373.79998779297</ele>
        <time>2021-01-13T11:03:17.000Z</time>
      </trkpt>
      <trkpt lat="43.78886" lon="5.74347">
        <ele>373.79998779297</ele>
        <time>2021-01-13T11:03:31.000Z</time>
      </trkpt>
      <trkpt lat="43.78886" lon="5.74347">
        <ele>373.79998779297</ele>
        <time>2021-01-13T11:03:43.000Z</time>
      </trkpt>
      <trkpt lat="43.78886" lon="5.74347">
        <ele>373.60000610352</ele>
        <time>2021-01-13T11:04:00.000Z</time>
      </trkpt>
      <trkpt lat="43.78886" lon="5.74347">
        <ele>373.39999389648</ele>
        <time>2021-01-13T11:04:42.000Z</time>
      </trkpt>
      <trkpt lat="43.78886" lon="5.74347">
        <ele>373.20001220703</ele>
        <time>2021-01-13T11:04:48.000Z</time>
      </trkpt>
      <trkpt lat="43.78886" lon="5.74347">
        <ele>373.20001220703</ele>
        <time>2021-01-13T11:05:16.000Z</time>
      </trkpt>
      <trkpt lat="43.78886" lon="5.74347">
        <ele>373.60000610352</ele>
        <time>2021-01-13T11:05:43.000Z</time>
      </trkpt>
      <trkpt lat="43.78886" lon="5.74347">
        <ele>373.39999389648</ele>
        <time>2021-01-13T11:06:34.000Z</time>
      </trkpt>
      <trkpt lat="43.78888" lon="5.74348">
        <ele>373.60000610352</ele>
        <time>2021-01-13T11:07:04.000Z</time>
      </trkpt>
      <trkpt lat="43.78889" lon="5.74349">
        <ele>374</ele>
        <time>2021-01-13T11:07:18.000Z</time>
      </trkpt>
      <trkpt lat="43.78894" lon="5.74356">
        <ele>374.20001220703</ele>
        <time>2021-01-13T11:07:23.000Z</time>
      </trkpt>
      <trkpt lat="43.78904" lon="5.74368">
        <ele>374.20001220703</ele>
        <time>2021-01-13T11:07:27.000Z</time>
      </trkpt>
      <trkpt lat="43.78908" lon="5.7437">
        <ele>374.20001220703</ele>
        <time>2021-01-13T11:07:28.000Z</time>
      </trkpt>
      <trkpt lat="43.78922" lon="5.74378">
        <ele>372.60000610352</ele>
        <time>2021-01-13T11:07:31.000Z</time>
      </trkpt>
      <trkpt lat="43.78929" lon="5.74386">
        <ele>372</ele>
        <time>2021-01-13T11:07:33.000Z</time>
      </trkpt>
      <trkpt lat="43.78933" lon="5.74393">
        <ele>370.60000610352</ele>
        <time>2021-01-13T11:07:35.000Z</time>
      </trkpt>
      <trkpt lat="43.78935" lon="5.74398">
        <ele>369.20001220703</ele>
        <time>2021-01-13T11:07:36.000Z</time>
      </trkpt>
      <trkpt lat="43.7894" lon="5.74406">
        <ele>367.79998779297</ele>
        <time>2021-01-13T11:07:38.000Z</time>
      </trkpt>
      <trkpt lat="43.78942" lon="5.74409">
        <ele>367</ele>
        <time>2021-01-13T11:07:39.000Z</time>
      </trkpt>
      <trkpt lat="43.78944" lon="5.74412">
        <ele>366.60000610352</ele>
        <time>2021-01-13T11:07:40.000Z</time>
      </trkpt>
      <trkpt lat="43.78958" lon="5.74422">
        <ele>365.39999389648</ele>
        <time>2021-01-13T11:07:45.000Z</time>
      </trkpt>
      <trkpt lat="43.78969" lon="5.74422">
        <ele>364.20001220703</ele>
        <time>2021-01-13T11:07:48.000Z</time>
      </trkpt>
      <trkpt lat="43.78979" lon="5.74422">
        <ele>363</ele>
        <time>2021-01-13T11:07:51.000Z</time>
      </trkpt>
      <trkpt lat="43.78995" lon="5.74427">
        <ele>361.79998779297</ele>
        <time>2021-01-13T11:07:55.000Z</time>
      </trkpt>
      <trkpt lat="43.79" lon="5.74427">
        <ele>361.39999389648</ele>
        <time>2021-01-13T11:07:56.000Z</time>
      </trkpt>
      <trkpt lat="43.79019" lon="5.74429">
        <ele>360.60000610352</ele>
        <time>2021-01-13T11:08:00.000Z</time>
      </trkpt>
      <trkpt lat="43.79024" lon="5.7443">
        <ele>360</ele>
        <time>2021-01-13T11:08:01.000Z</time>
      </trkpt>
      <trkpt lat="43.79029" lon="5.74432">
        <ele>359.20001220703</ele>
        <time>2021-01-13T11:08:02.000Z</time>
      </trkpt>
      <trkpt lat="43.79034" lon="5.74434">
        <ele>358.39999389648</ele>
        <time>2021-01-13T11:08:03.000Z</time>
      </trkpt>
      <trkpt lat="43.79039" lon="5.74437">
        <ele>358</ele>
        <time>2021-01-13T11:08:04.000Z</time>
      </trkpt>
      <trkpt lat="43.79048" lon="5.74446">
        <ele>357</ele>
        <time>2021-01-13T11:08:06.000Z</time>
      </trkpt>
      <trkpt lat="43.79055" lon="5.74456">
        <ele>355.39999389648</ele>
        <time>2021-01-13T11:08:08.000Z</time>
      </trkpt>
      <trkpt lat="43.79059" lon="5.74461">
        <ele>355</ele>
        <time>2021-01-13T11:08:09.000Z</time>
      </trkpt>
      <trkpt lat="43.79064" lon="5.74467">
        <ele>354.60000610352</ele>
        <time>2021-01-13T11:08:10.000Z</time>
      </trkpt>
      <trkpt lat="43.79069" lon="5.74472">
        <ele>354.39999389648</ele>
        <time>2021-01-13T11:08:11.000Z</time>
      </trkpt>
      <trkpt lat="43.7908" lon="5.74479">
        <ele>352.60000610352</ele>
        <time>2021-01-13T11:08:13.000Z</time>
      </trkpt>
      <trkpt lat="43.79086" lon="5.74482">
        <ele>351.60000610352</ele>
        <time>2021-01-13T11:08:14.000Z</time>
      </trkpt>
      <trkpt lat="43.79092" lon="5.74484">
        <ele>351</ele>
        <time>2021-01-13T11:08:15.000Z</time>
      </trkpt>
      <trkpt lat="43.79098" lon="5.74486">
        <ele>350</ele>
        <time>2021-01-13T11:08:16.000Z</time>
      </trkpt>
      <trkpt lat="43.79103" lon="5.74487">
        <ele>349.60000610352</ele>
        <time>2021-01-13T11:08:17.000Z</time>
      </trkpt>
      <trkpt lat="43.79115" lon="5.74492">
        <ele>347.79998779297</ele>
        <time>2021-01-13T11:08:19.000Z</time>
      </trkpt>
      <trkpt lat="43.79121" lon="5.74494">
        <ele>347.20001220703</ele>
        <time>2021-01-13T11:08:20.000Z</time>
      </trkpt>
      <trkpt lat="43.79126" lon="5.74496">
        <ele>346.39999389648</ele>
        <time>2021-01-13T11:08:21.000Z</time>
      </trkpt>
      <trkpt lat="43.79132" lon="5.74498">
        <ele>346</ele>
        <time>2021-01-13T11:08:22.000Z</time>
      </trkpt>
      <trkpt lat="43.79137" lon="5.74502">
        <ele>345</ele>
        <time>2021-01-13T11:08:23.000Z</time>
      </trkpt>
      <trkpt lat="43.7914" lon="5.74506">
        <ele>343</ele>
        <time>2021-01-13T11:08:24.000Z</time>
      </trkpt>
      <trkpt lat="43.79145" lon="5.74515">
        <ele>341.60000610352</ele>
        <time>2021-01-13T11:08:26.000Z</time>
      </trkpt>
      <trkpt lat="43.79147" lon="5.74528">
        <ele>341.20001220703</ele>
        <time>2021-01-13T11:08:28.000Z</time>
      </trkpt>
      <trkpt lat="43.79143" lon="5.74542">
        <ele>341</ele>
        <time>2021-01-13T11:08:30.000Z</time>
      </trkpt>
      <trkpt lat="43.7914" lon="5.74548">
        <ele>341</ele>
        <time>2021-01-13T11:08:31.000Z</time>
      </trkpt>
      <trkpt lat="43.79135" lon="5.74578">
        <ele>340.60000610352</ele>
        <time>2021-01-13T11:08:35.000Z</time>
      </trkpt>
      <trkpt lat="43.79134" lon="5.74586">
        <ele>340</ele>
        <time>2021-01-13T11:08:36.000Z</time>
      </trkpt>
      <trkpt lat="43.79132" lon="5.74604">
        <ele>339</ele>
        <time>2021-01-13T11:08:38.000Z</time>
      </trkpt>
      <trkpt lat="43.79131" lon="5.74623">
        <ele>338.20001220703</ele>
        <time>2021-01-13T11:08:40.000Z</time>
      </trkpt>
      <trkpt lat="43.79131" lon="5.74633">
        <ele>337.60000610352</ele>
        <time>2021-01-13T11:08:41.000Z</time>
      </trkpt>
      <trkpt lat="43.7913" lon="5.74657">
        <ele>336.39999389648</ele>
        <time>2021-01-13T11:08:44.000Z</time>
      </trkpt>
      <trkpt lat="43.7913" lon="5.74666">
        <ele>336</ele>
        <time>2021-01-13T11:08:45.000Z</time>
      </trkpt>
      <trkpt lat="43.79131" lon="5.74673">
        <ele>335.39999389648</ele>
        <time>2021-01-13T11:08:46.000Z</time>
      </trkpt>
      <trkpt lat="43.79131" lon="5.7468">
        <ele>334.39999389648</ele>
        <time>2021-01-13T11:08:47.000Z</time>
      </trkpt>
      <trkpt lat="43.79132" lon="5.7469">
        <ele>333.20001220703</ele>
        <time>2021-01-13T11:08:49.000Z</time>
      </trkpt>
      <trkpt lat="43.79132" lon="5.74692">
        <ele>332</ele>
        <time>2021-01-13T11:08:51.000Z</time>
      </trkpt>
      <trkpt lat="43.79132" lon="5.74692">
        <ele>331</ele>
        <time>2021-01-13T11:08:52.000Z</time>
      </trkpt>
      <trkpt lat="43.79132" lon="5.74692">
        <ele>330.60000610352</ele>
        <time>2021-01-13T11:08:53.000Z</time>
      </trkpt>
      <trkpt lat="43.79132" lon="5.74692">
        <ele>329.60000610352</ele>
        <time>2021-01-13T11:08:58.000Z</time>
      </trkpt>
      <trkpt lat="43.79133" lon="5.74693">
        <ele>329.39999389648</ele>
        <time>2021-01-13T11:09:01.000Z</time>
      </trkpt>
      <trkpt lat="43.79133" lon="5.74695">
        <ele>329.39999389648</ele>
        <time>2021-01-13T11:09:02.000Z</time>
      </trkpt>
      <trkpt lat="43.79138" lon="5.74716">
        <ele>329</ele>
        <time>2021-01-13T11:09:07.000Z</time>
      </trkpt>
      <trkpt lat="43.7914" lon="5.7472">
        <ele>329</ele>
        <time>2021-01-13T11:09:08.000Z</time>
      </trkpt>
      <trkpt lat="43.79146" lon="5.74735">
        <ele>328.60000610352</ele>
        <time>2021-01-13T11:09:11.000Z</time>
      </trkpt>
      <trkpt lat="43.79147" lon="5.74741">
        <ele>328.20001220703</ele>
        <time>2021-01-13T11:09:12.000Z</time>
      </trkpt>
      <trkpt lat="43.79147" lon="5.74762">
        <ele>327.20001220703</ele>
        <time>2021-01-13T11:09:15.000Z</time>
      </trkpt>
      <trkpt lat="43.79147" lon="5.74769">
        <ele>326.79998779297</ele>
        <time>2021-01-13T11:09:16.000Z</time>
      </trkpt>
      <trkpt lat="43.79149" lon="5.74784">
        <ele>325.60000610352</ele>
        <time>2021-01-13T11:09:18.000Z</time>
      </trkpt>
      <trkpt lat="43.79151" lon="5.74792">
        <ele>324.20001220703</ele>
        <time>2021-01-13T11:09:19.000Z</time>
      </trkpt>
      <trkpt lat="43.79155" lon="5.74799">
        <ele>323.60000610352</ele>
        <time>2021-01-13T11:09:20.000Z</time>
      </trkpt>
      <trkpt lat="43.79157" lon="5.74805">
        <ele>323</ele>
        <time>2021-01-13T11:09:21.000Z</time>
      </trkpt>
      <trkpt lat="43.79161" lon="5.74818">
        <ele>321.79998779297</ele>
        <time>2021-01-13T11:09:23.000Z</time>
      </trkpt>
      <trkpt lat="43.79164" lon="5.74831">
        <ele>320.20001220703</ele>
        <time>2021-01-13T11:09:25.000Z</time>
      </trkpt>
      <trkpt lat="43.79167" lon="5.74844">
        <ele>318.20001220703</ele>
        <time>2021-01-13T11:09:27.000Z</time>
      </trkpt>
      <trkpt lat="43.79169" lon="5.7485">
        <ele>317.20001220703</ele>
        <time>2021-01-13T11:09:28.000Z</time>
      </trkpt>
      <trkpt lat="43.79171" lon="5.74856">
        <ele>316</ele>
        <time>2021-01-13T11:09:29.000Z</time>
      </trkpt>
      <trkpt lat="43.79173" lon="5.74862">
        <ele>314.79998779297</ele>
        <time>2021-01-13T11:09:30.000Z</time>
      </trkpt>
      <trkpt lat="43.79175" lon="5.74869">
        <ele>313.79998779297</ele>
        <time>2021-01-13T11:09:31.000Z</time>
      </trkpt>
      <trkpt lat="43.7918" lon="5.74881">
        <ele>312.20001220703</ele>
        <time>2021-01-13T11:09:33.000Z</time>
      </trkpt>
      <trkpt lat="43.79181" lon="5.74886">
        <ele>311.79998779297</ele>
        <time>2021-01-13T11:09:34.000Z</time>
      </trkpt>
      <trkpt lat="43.79184" lon="5.74894">
        <ele>311.20001220703</ele>
        <time>2021-01-13T11:09:36.000Z</time>
      </trkpt>
      <trkpt lat="43.79186" lon="5.74899">
        <ele>310.20001220703</ele>
        <time>2021-01-13T11:09:38.000Z</time>
      </trkpt>
      <trkpt lat="43.79186" lon="5.749">
        <ele>308.79998779297</ele>
        <time>2021-01-13T11:09:40.000Z</time>
      </trkpt>
      <trkpt lat="43.79186" lon="5.749">
        <ele>308.39999389648</ele>
        <time>2021-01-13T11:09:42.000Z</time>
      </trkpt>
      <trkpt lat="43.79186" lon="5.74903">
        <ele>308</ele>
        <time>2021-01-13T11:09:50.000Z</time>
      </trkpt>
      <trkpt lat="43.79184" lon="5.74907">
        <ele>307.79998779297</ele>
        <time>2021-01-13T11:09:56.000Z</time>
      </trkpt>
      <trkpt lat="43.7918" lon="5.74917">
        <ele>307.39999389648</ele>
        <time>2021-01-13T11:10:05.000Z</time>
      </trkpt>
      <trkpt lat="43.79176" lon="5.74935">
        <ele>307</ele>
        <time>2021-01-13T11:10:10.000Z</time>
      </trkpt>
      <trkpt lat="43.79173" lon="5.74944">
        <ele>306.79998779297</ele>
        <time>2021-01-13T11:10:13.000Z</time>
      </trkpt>
      <trkpt lat="43.79172" lon="5.74946">
        <ele>306.60000610352</ele>
        <time>2021-01-13T11:10:14.000Z</time>
      </trkpt>
      <trkpt lat="43.7917" lon="5.74949">
        <ele>306.39999389648</ele>
        <time>2021-01-13T11:10:17.000Z</time>
      </trkpt>
      <trkpt lat="43.79167" lon="5.74956">
        <ele>306.39999389648</ele>
        <time>2021-01-13T11:10:21.000Z</time>
      </trkpt>
      <trkpt lat="43.79163" lon="5.74966">
        <ele>306.39999389648</ele>
        <time>2021-01-13T11:10:29.000Z</time>
      </trkpt>
      <trkpt lat="43.79163" lon="5.74966">
        <ele>306.20001220703</ele>
        <time>2021-01-13T11:10:39.000Z</time>
      </trkpt>
      <trkpt lat="43.79163" lon="5.74966">
        <ele>306.20001220703</ele>
        <time>2021-01-13T11:10:47.000Z</time>
      </trkpt>
      <trkpt lat="43.79163" lon="5.74967">
        <ele>306</ele>
        <time>2021-01-13T11:10:56.000Z</time>
      </trkpt>
      <trkpt lat="43.79163" lon="5.74967">
        <ele>306</ele>
        <time>2021-01-13T11:10:57.000Z</time>
      </trkpt>
      <trkpt lat="43.79163" lon="5.74968">
        <ele>306</ele>
        <time>2021-01-13T11:11:04.000Z</time>
      </trkpt>
      <trkpt lat="43.7916" lon="5.74974">
        <ele>306</ele>
        <time>2021-01-13T11:11:11.000Z</time>
      </trkpt>
      <trkpt lat="43.7916" lon="5.74976">
        <ele>306</ele>
        <time>2021-01-13T11:11:12.000Z</time>
      </trkpt>
      <trkpt lat="43.79156" lon="5.74987">
        <ele>306.20001220703</ele>
        <time>2021-01-13T11:11:22.000Z</time>
      </trkpt>
      <trkpt lat="43.79154" lon="5.74995">
        <ele>306.39999389648</ele>
        <time>2021-01-13T11:11:31.000Z</time>
      </trkpt>
      <trkpt lat="43.79154" lon="5.74995">
        <ele>306.20001220703</ele>
        <time>2021-01-13T11:11:42.000Z</time>
      </trkpt>
      <trkpt lat="43.79152" lon="5.74999">
        <ele>306</ele>
        <time>2021-01-13T11:11:49.000Z</time>
      </trkpt>
      <trkpt lat="43.79152" lon="5.74999">
        <ele>305.60000610352</ele>
        <time>2021-01-13T11:12:02.000Z</time>
      </trkpt>
      <trkpt lat="43.79152" lon="5.74999">
        <ele>305.60000610352</ele>
        <time>2021-01-13T11:12:03.000Z</time>
      </trkpt>
      <trkpt lat="43.79152" lon="5.74999">
        <ele>305.20001220703</ele>
        <time>2021-01-13T11:12:30.000Z</time>
      </trkpt>
      <trkpt lat="43.79152" lon="5.74999">
        <ele>304.79998779297</ele>
        <time>2021-01-13T11:13:03.000Z</time>
      </trkpt>
      <trkpt lat="43.79152" lon="5.75">
        <ele>305</ele>
        <time>2021-01-13T11:13:41.000Z</time>
      </trkpt>
      <trkpt lat="43.79152" lon="5.75">
        <ele>305.60000610352</ele>
        <time>2021-01-13T11:14:31.000Z</time>
      </trkpt>
      <trkpt lat="43.79152" lon="5.75">
        <ele>305</ele>
        <time>2021-01-13T11:15:29.000Z</time>
      </trkpt>
      <trkpt lat="43.79152" lon="5.75">
        <ele>305.79998779297</ele>
        <time>2021-01-13T11:16:00.000Z</time>
      </trkpt>
      <trkpt lat="43.79152" lon="5.74999">
        <ele>305.60000610352</ele>
        <time>2021-01-13T11:16:15.000Z</time>
      </trkpt>
      <trkpt lat="43.79152" lon="5.75001">
        <ele>306.20001220703</ele>
        <time>2021-01-13T11:16:24.000Z</time>
      </trkpt>
      <trkpt lat="43.79152" lon="5.75001">
        <ele>306.20001220703</ele>
        <time>2021-01-13T11:16:29.000Z</time>
      </trkpt>
      <trkpt lat="43.79152" lon="5.75001">
        <ele>306.39999389648</ele>
        <time>2021-01-13T11:16:32.000Z</time>
      </trkpt>
      <trkpt lat="43.79152" lon="5.75">
        <ele>306.79998779297</ele>
        <time>2021-01-13T11:16:47.000Z</time>
      </trkpt>
      <trkpt lat="43.79152" lon="5.75">
        <ele>306.20001220703</ele>
        <time>2021-01-13T11:16:57.000Z</time>
      </trkpt>
      <trkpt lat="43.79152" lon="5.75">
        <ele>305.60000610352</ele>
        <time>2021-01-13T11:17:45.000Z</time>
      </trkpt>
      <trkpt lat="43.79152" lon="5.75">
        <ele>305.39999389648</ele>
        <time>2021-01-13T11:18:08.000Z</time>
      </trkpt>
      <trkpt lat="43.79152" lon="5.75">
        <ele>305.20001220703</ele>
        <time>2021-01-13T11:19:03.000Z</time>
      </trkpt>
      <trkpt lat="43.79152" lon="5.75">
        <ele>305.39999389648</ele>
        <time>2021-01-13T11:19:32.000Z</time>
      </trkpt>
      <trkpt lat="43.79152" lon="5.75">
        <ele>305.20001220703</ele>
        <time>2021-01-13T11:20:26.000Z</time>
      </trkpt>
      <trkpt lat="43.79152" lon="5.75">
        <ele>305.20001220703</ele>
        <time>2021-01-13T11:21:04.000Z</time>
      </trkpt>
      <trkpt lat="43.79153" lon="5.75">
        <ele>305.20001220703</ele>
        <time>2021-01-13T11:21:36.000Z</time>
      </trkpt>
      <trkpt lat="43.79152" lon="5.75">
        <ele>305</ele>
        <time>2021-01-13T11:22:05.000Z</time>
      </trkpt>
      <trkpt lat="43.79152" lon="5.75004">
        <ele>305.39999389648</ele>
        <time>2021-01-13T11:22:13.000Z</time>
      </trkpt>
      <trkpt lat="43.79151" lon="5.75012">
        <ele>306.20001220703</ele>
        <time>2021-01-13T11:22:21.000Z</time>
      </trkpt>
      <trkpt lat="43.79147" lon="5.75022">
        <ele>306.20001220703</ele>
        <time>2021-01-13T11:22:28.000Z</time>
      </trkpt>
      <trkpt lat="43.7914" lon="5.75036">
        <ele>306</ele>
        <time>2021-01-13T11:22:38.000Z</time>
      </trkpt>
      <trkpt lat="43.79133" lon="5.75049">
        <ele>305.79998779297</ele>
        <time>2021-01-13T11:22:48.000Z</time>
      </trkpt>
      <trkpt lat="43.79126" lon="5.75061">
        <ele>305.79998779297</ele>
        <time>2021-01-13T11:22:57.000Z</time>
      </trkpt>
      <trkpt lat="43.79125" lon="5.75072">
        <ele>306</ele>
        <time>2021-01-13T11:23:04.000Z</time>
      </trkpt>
      <trkpt lat="43.79126" lon="5.75074">
        <ele>306</ele>
        <time>2021-01-13T11:23:06.000Z</time>
      </trkpt>
      <trkpt lat="43.79129" lon="5.75078">
        <ele>306</ele>
        <time>2021-01-13T11:23:11.000Z</time>
      </trkpt>
      <trkpt lat="43.79132" lon="5.75084">
        <ele>305.60000610352</ele>
        <time>2021-01-13T11:23:17.000Z</time>
      </trkpt>
      <trkpt lat="43.79133" lon="5.75085">
        <ele>305.20001220703</ele>
        <time>2021-01-13T11:23:20.000Z</time>
      </trkpt>
      <trkpt lat="43.79133" lon="5.75085">
        <ele>305</ele>
        <time>2021-01-13T11:23:24.000Z</time>
      </trkpt>
      <trkpt lat="43.79133" lon="5.75086">
        <ele>304.79998779297</ele>
        <time>2021-01-13T11:23:25.000Z</time>
      </trkpt>
      <trkpt lat="43.79133" lon="5.75086">
        <ele>304</ele>
        <time>2021-01-13T11:23:35.000Z</time>
      </trkpt>
      <trkpt lat="43.79132" lon="5.75086">
        <ele>304</ele>
        <time>2021-01-13T11:23:53.000Z</time>
      </trkpt>
      <trkpt lat="43.79133" lon="5.75088">
        <ele>304.20001220703</ele>
        <time>2021-01-13T11:24:00.000Z</time>
      </trkpt>
      <trkpt lat="43.79132" lon="5.7509">
        <ele>304.39999389648</ele>
        <time>2021-01-13T11:24:08.000Z</time>
      </trkpt>
      <trkpt lat="43.79133" lon="5.75092">
        <ele>304.60000610352</ele>
        <time>2021-01-13T11:24:14.000Z</time>
      </trkpt>
      <trkpt lat="43.79133" lon="5.75093">
        <ele>304.39999389648</ele>
        <time>2021-01-13T11:24:28.000Z</time>
      </trkpt>
      <trkpt lat="43.79133" lon="5.75093">
        <ele>304.60000610352</ele>
        <time>2021-01-13T11:24:41.000Z</time>
      </trkpt>
      <trkpt lat="43.79133" lon="5.75094">
        <ele>304.60000610352</ele>
        <time>2021-01-13T11:25:00.000Z</time>
      </trkpt>
      <trkpt lat="43.79133" lon="5.75094">
        <ele>304.39999389648</ele>
        <time>2021-01-13T11:25:21.000Z</time>
      </trkpt>
      <trkpt lat="43.79133" lon="5.75094">
        <ele>303.60000610352</ele>
        <time>2021-01-13T11:25:48.000Z</time>
      </trkpt>
      <trkpt lat="43.79133" lon="5.75094">
        <ele>304</ele>
        <time>2021-01-13T11:26:12.000Z</time>
      </trkpt>
      <trkpt lat="43.79133" lon="5.75093">
        <ele>303.79998779297</ele>
        <time>2021-01-13T11:26:35.000Z</time>
      </trkpt>
      <trkpt lat="43.79134" lon="5.75094">
        <ele>303.60000610352</ele>
        <time>2021-01-13T11:26:45.000Z</time>
      </trkpt>
      <trkpt lat="43.79135" lon="5.75098">
        <ele>303.79998779297</ele>
        <time>2021-01-13T11:26:51.000Z</time>
      </trkpt>
      <trkpt lat="43.79135" lon="5.75099">
        <ele>304</ele>
        <time>2021-01-13T11:26:53.000Z</time>
      </trkpt>
      <trkpt lat="43.79134" lon="5.75105">
        <ele>305</ele>
        <time>2021-01-13T11:27:01.000Z</time>
      </trkpt>
      <trkpt lat="43.79136" lon="5.75111">
        <ele>305.39999389648</ele>
        <time>2021-01-13T11:27:07.000Z</time>
      </trkpt>
      <trkpt lat="43.79137" lon="5.75112">
        <ele>305.39999389648</ele>
        <time>2021-01-13T11:27:09.000Z</time>
      </trkpt>
      <trkpt lat="43.79138" lon="5.75113">
        <ele>305.39999389648</ele>
        <time>2021-01-13T11:27:13.000Z</time>
      </trkpt>
      <trkpt lat="43.79139" lon="5.75118">
        <ele>305.39999389648</ele>
        <time>2021-01-13T11:27:17.000Z</time>
      </trkpt>
      <trkpt lat="43.7914" lon="5.75123">
        <ele>305.60000610352</ele>
        <time>2021-01-13T11:27:22.000Z</time>
      </trkpt>
      <trkpt lat="43.79142" lon="5.75125">
        <ele>306</ele>
        <time>2021-01-13T11:27:28.000Z</time>
      </trkpt>
      <trkpt lat="43.79142" lon="5.75129">
        <ele>306.39999389648</ele>
        <time>2021-01-13T11:27:32.000Z</time>
      </trkpt>
      <trkpt lat="43.79142" lon="5.7513">
        <ele>306.39999389648</ele>
        <time>2021-01-13T11:27:33.000Z</time>
      </trkpt>
      <trkpt lat="43.7914" lon="5.75133">
        <ele>306.60000610352</ele>
        <time>2021-01-13T11:27:36.000Z</time>
      </trkpt>
      <trkpt lat="43.79142" lon="5.75135">
        <ele>307.39999389648</ele>
        <time>2021-01-13T11:27:41.000Z</time>
      </trkpt>
      <trkpt lat="43.79142" lon="5.75134">
        <ele>307.39999389648</ele>
        <time>2021-01-13T11:27:42.000Z</time>
      </trkpt>
      <trkpt lat="43.79143" lon="5.75133">
        <ele>307.39999389648</ele>
        <time>2021-01-13T11:27:50.000Z</time>
      </trkpt>
      <trkpt lat="43.79145" lon="5.75129">
        <ele>307.20001220703</ele>
        <time>2021-01-13T11:27:55.000Z</time>
      </trkpt>
      <trkpt lat="43.79146" lon="5.75126">
        <ele>307.20001220703</ele>
        <time>2021-01-13T11:27:57.000Z</time>
      </trkpt>
      <trkpt lat="43.79149" lon="5.7512">
        <ele>306.79998779297</ele>
        <time>2021-01-13T11:28:00.000Z</time>
      </trkpt>
      <trkpt lat="43.79154" lon="5.75108">
        <ele>306.60000610352</ele>
        <time>2021-01-13T11:28:06.000Z</time>
      </trkpt>
      <trkpt lat="43.79156" lon="5.75101">
        <ele>306.39999389648</ele>
        <time>2021-01-13T11:28:09.000Z</time>
      </trkpt>
      <trkpt lat="43.79161" lon="5.7509">
        <ele>306</ele>
        <time>2021-01-13T11:28:15.000Z</time>
      </trkpt>
      <trkpt lat="43.79165" lon="5.75077">
        <ele>305.60000610352</ele>
        <time>2021-01-13T11:28:24.000Z</time>
      </trkpt>
      <trkpt lat="43.79166" lon="5.75077">
        <ele>306</ele>
        <time>2021-01-13T11:28:30.000Z</time>
      </trkpt>
      <trkpt lat="43.79167" lon="5.75075">
        <ele>307</ele>
        <time>2021-01-13T11:28:41.000Z</time>
      </trkpt>
      <trkpt lat="43.79171" lon="5.75062">
        <ele>306.79998779297</ele>
        <time>2021-01-13T11:28:50.000Z</time>
      </trkpt>
      <trkpt lat="43.79177" lon="5.75047">
        <ele>306.39999389648</ele>
        <time>2021-01-13T11:29:00.000Z</time>
      </trkpt>
      <trkpt lat="43.79179" lon="5.75041">
        <ele>306.79998779297</ele>
        <time>2021-01-13T11:29:07.000Z</time>
      </trkpt>
      <trkpt lat="43.79182" lon="5.75033">
        <ele>307.20001220703</ele>
        <time>2021-01-13T11:29:15.000Z</time>
      </trkpt>
      <trkpt lat="43.79185" lon="5.75026">
        <ele>307</ele>
        <time>2021-01-13T11:29:24.000Z</time>
      </trkpt>
      <trkpt lat="43.79185" lon="5.75026">
        <ele>307.39999389648</ele>
        <time>2021-01-13T11:29:30.000Z</time>
      </trkpt>
      <trkpt lat="43.79184" lon="5.75026">
        <ele>308.39999389648</ele>
        <time>2021-01-13T11:29:43.000Z</time>
      </trkpt>
      <trkpt lat="43.79184" lon="5.75025">
        <ele>308.60000610352</ele>
        <time>2021-01-13T11:30:06.000Z</time>
      </trkpt>
      <trkpt lat="43.79181" lon="5.75028">
        <ele>308.60000610352</ele>
        <time>2021-01-13T11:30:11.000Z</time>
      </trkpt>
      <trkpt lat="43.79181" lon="5.75029">
        <ele>308.60000610352</ele>
        <time>2021-01-13T11:30:12.000Z</time>
      </trkpt>
      <trkpt lat="43.79176" lon="5.75041">
        <ele>308.60000610352</ele>
        <time>2021-01-13T11:30:17.000Z</time>
      </trkpt>
      <trkpt lat="43.79168" lon="5.75064">
        <ele>308.20001220703</ele>
        <time>2021-01-13T11:30:24.000Z</time>
      </trkpt>
      <trkpt lat="43.79172" lon="5.75065">
        <ele>307.79998779297</ele>
        <time>2021-01-13T11:30:28.000Z</time>
      </trkpt>
      <trkpt lat="43.79173" lon="5.7506">
        <ele>307.60000610352</ele>
        <time>2021-01-13T11:30:31.000Z</time>
      </trkpt>
      <trkpt lat="43.79175" lon="5.75055">
        <ele>307.39999389648</ele>
        <time>2021-01-13T11:30:35.000Z</time>
      </trkpt>
      <trkpt lat="43.79176" lon="5.75053">
        <ele>307.39999389648</ele>
        <time>2021-01-13T11:30:36.000Z</time>
      </trkpt>
      <trkpt lat="43.79178" lon="5.75045">
        <ele>307</ele>
        <time>2021-01-13T11:30:44.000Z</time>
      </trkpt>
      <trkpt lat="43.79182" lon="5.75037">
        <ele>307.20001220703</ele>
        <time>2021-01-13T11:30:50.000Z</time>
      </trkpt>
      <trkpt lat="43.79185" lon="5.75028">
        <ele>307.60000610352</ele>
        <time>2021-01-13T11:30:56.000Z</time>
      </trkpt>
      <trkpt lat="43.79188" lon="5.75018">
        <ele>307.79998779297</ele>
        <time>2021-01-13T11:31:02.000Z</time>
      </trkpt>
      <trkpt lat="43.79191" lon="5.7501">
        <ele>308</ele>
        <time>2021-01-13T11:31:07.000Z</time>
      </trkpt>
      <trkpt lat="43.79197" lon="5.74991">
        <ele>308.20001220703</ele>
        <time>2021-01-13T11:31:18.000Z</time>
      </trkpt>
      <trkpt lat="43.79201" lon="5.74981">
        <ele>308</ele>
        <time>2021-01-13T11:31:26.000Z</time>
      </trkpt>
      <trkpt lat="43.79204" lon="5.74972">
        <ele>307.79998779297</ele>
        <time>2021-01-13T11:31:31.000Z</time>
      </trkpt>
      <trkpt lat="43.79209" lon="5.74958">
        <ele>307.60000610352</ele>
        <time>2021-01-13T11:31:39.000Z</time>
      </trkpt>
      <trkpt lat="43.79214" lon="5.74945">
        <ele>307.60000610352</ele>
        <time>2021-01-13T11:31:47.000Z</time>
      </trkpt>
      <trkpt lat="43.79218" lon="5.74932">
        <ele>307.60000610352</ele>
        <time>2021-01-13T11:31:55.000Z</time>
      </trkpt>
      <trkpt lat="43.79221" lon="5.7492">
        <ele>307.79998779297</ele>
        <time>2021-01-13T11:32:04.000Z</time>
      </trkpt>
      <trkpt lat="43.79222" lon="5.74915">
        <ele>308.20001220703</ele>
        <time>2021-01-13T11:32:11.000Z</time>
      </trkpt>
      <trkpt lat="43.79225" lon="5.74895">
        <ele>307.79998779297</ele>
        <time>2021-01-13T11:32:22.000Z</time>
      </trkpt>
      <trkpt lat="43.79226" lon="5.74875">
        <ele>307.39999389648</ele>
        <time>2021-01-13T11:32:32.000Z</time>
      </trkpt>
      <trkpt lat="43.79227" lon="5.74858">
        <ele>308.39999389648</ele>
        <time>2021-01-13T11:32:40.000Z</time>
      </trkpt>
      <trkpt lat="43.79228" lon="5.74847">
        <ele>308.60000610352</ele>
        <time>2021-01-13T11:32:46.000Z</time>
      </trkpt>
      <trkpt lat="43.79228" lon="5.7484">
        <ele>308.79998779297</ele>
        <time>2021-01-13T11:32:50.000Z</time>
      </trkpt>
      <trkpt lat="43.79228" lon="5.74818">
        <ele>309</ele>
        <time>2021-01-13T11:33:01.000Z</time>
      </trkpt>
      <trkpt lat="43.79228" lon="5.748">
        <ele>309</ele>
        <time>2021-01-13T11:33:10.000Z</time>
      </trkpt>
      <trkpt lat="43.79228" lon="5.74792">
        <ele>309</ele>
        <time>2021-01-13T11:33:17.000Z</time>
      </trkpt>
      <trkpt lat="43.79228" lon="5.7479">
        <ele>309.20001220703</ele>
        <time>2021-01-13T11:33:24.000Z</time>
      </trkpt>
      <trkpt lat="43.79229" lon="5.74786">
        <ele>309.20001220703</ele>
        <time>2021-01-13T11:33:26.000Z</time>
      </trkpt>
      <trkpt lat="43.7923" lon="5.74765">
        <ele>308.79998779297</ele>
        <time>2021-01-13T11:33:37.000Z</time>
      </trkpt>
      <trkpt lat="43.79236" lon="5.74743">
        <ele>308.79998779297</ele>
        <time>2021-01-13T11:33:49.000Z</time>
      </trkpt>
      <trkpt lat="43.79241" lon="5.74727">
        <ele>309</ele>
        <time>2021-01-13T11:33:58.000Z</time>
      </trkpt>
      <trkpt lat="43.79248" lon="5.74712">
        <ele>309.39999389648</ele>
        <time>2021-01-13T11:34:07.000Z</time>
      </trkpt>
      <trkpt lat="43.79254" lon="5.747">
        <ele>309.60000610352</ele>
        <time>2021-01-13T11:34:15.000Z</time>
      </trkpt>
      <trkpt lat="43.79256" lon="5.74697">
        <ele>309.79998779297</ele>
        <time>2021-01-13T11:34:17.000Z</time>
      </trkpt>
      <trkpt lat="43.79264" lon="5.74676">
        <ele>310.60000610352</ele>
        <time>2021-01-13T11:34:29.000Z</time>
      </trkpt>
      <trkpt lat="43.79272" lon="5.7466">
        <ele>310.20001220703</ele>
        <time>2021-01-13T11:34:39.000Z</time>
      </trkpt>
      <trkpt lat="43.79273" lon="5.74658">
        <ele>310.39999389648</ele>
        <time>2021-01-13T11:34:44.000Z</time>
      </trkpt>
      <trkpt lat="43.79273" lon="5.74657">
        <ele>310.60000610352</ele>
        <time>2021-01-13T11:34:47.000Z</time>
      </trkpt>
      <trkpt lat="43.79274" lon="5.74654">
        <ele>310.79998779297</ele>
        <time>2021-01-13T11:34:52.000Z</time>
      </trkpt>
      <trkpt lat="43.79283" lon="5.74641">
        <ele>310.79998779297</ele>
        <time>2021-01-13T11:34:59.000Z</time>
      </trkpt>
      <trkpt lat="43.79294" lon="5.74631">
        <ele>310.60000610352</ele>
        <time>2021-01-13T11:35:07.000Z</time>
      </trkpt>
      <trkpt lat="43.79304" lon="5.7463">
        <ele>310.79998779297</ele>
        <time>2021-01-13T11:35:14.000Z</time>
      </trkpt>
      <trkpt lat="43.79313" lon="5.7463">
        <ele>311.79998779297</ele>
        <time>2021-01-13T11:35:21.000Z</time>
      </trkpt>
      <trkpt lat="43.7933" lon="5.74632">
        <ele>312.39999389648</ele>
        <time>2021-01-13T11:35:33.000Z</time>
      </trkpt>
      <trkpt lat="43.79334" lon="5.74633">
        <ele>312.39999389648</ele>
        <time>2021-01-13T11:35:36.000Z</time>
      </trkpt>
      <trkpt lat="43.75762" lon="5.88574">
        <ele>346.79998779297</ele>
        <time>2021-01-18T10:11:02.000Z</time>
      </trkpt>
      <trkpt lat="43.75761" lon="5.88573">
        <ele>346.79998779297</ele>
        <time>2021-01-18T10:11:17.000Z</time>
      </trkpt>
      <trkpt lat="43.75765" lon="5.88569">
        <ele>346.79998779297</ele>
        <time>2021-01-18T10:11:27.000Z</time>
      </trkpt>
      <trkpt lat="43.75767" lon="5.88568">
        <ele>346.79998779297</ele>
        <time>2021-01-18T10:11:29.000Z</time>
      </trkpt>
      <trkpt lat="43.75773" lon="5.88565">
        <ele>346.79998779297</ele>
        <time>2021-01-18T10:11:33.000Z</time>
      </trkpt>
      <trkpt lat="43.75777" lon="5.88563">
        <ele>346.79998779297</ele>
        <time>2021-01-18T10:11:35.000Z</time>
      </trkpt>
      <trkpt lat="43.75778" lon="5.88562">
        <ele>346.79998779297</ele>
        <time>2021-01-18T10:11:36.000Z</time>
      </trkpt>
    </trkseg>
  </trk>
</gpx>